<?xml version="1.0" encoding="UTF-8" standalone="no" ?>
<gpx xmlns="http://www.topografix.com/GPX/1/1" xmlns:xsi="http://www.w3.org/2001/XMLSchema-instance" xsi:schemaLocation="http://www.topografix.com/GPX/1/1 http://www.topografix.com/GPX/1/1/gpx.xsd" version="1.1" creator="VisuGPX - https://www.visugpx.com">
  <metadata>
    <name>le PEGUE (les puits)</name>
    <desc><![CDATA[rando sympa et sous le soleil]]></desc>
  </metadata>
  <trk>
    <name><![CDATA[Sequence 1]]></name>
    <trkseg>
      <trkpt lat="44.428" lon="5.04954">
        <ele>342</ele>
        <time>2015-10-23T12:07:03Z</time>
      </trkpt>
      <trkpt lat="44.428" lon="5.04954">
        <ele>342</ele>
        <time>2015-10-23T12:07:06Z</time>
      </trkpt>
      <trkpt lat="44.428" lon="5.04954">
        <ele>343</ele>
        <time>2015-10-23T12:07:09Z</time>
      </trkpt>
      <trkpt lat="44.428" lon="5.04954">
        <ele>343</ele>
        <time>2015-10-23T12:07:12Z</time>
      </trkpt>
      <trkpt lat="44.428" lon="5.04954">
        <ele>343</ele>
        <time>2015-10-23T12:07:17Z</time>
      </trkpt>
      <trkpt lat="44.428" lon="5.04954">
        <ele>343</ele>
        <time>2015-10-23T12:07:18Z</time>
      </trkpt>
      <trkpt lat="44.428" lon="5.04954">
        <ele>343</ele>
        <time>2015-10-23T12:07:21Z</time>
      </trkpt>
      <trkpt lat="44.428" lon="5.04954">
        <ele>343</ele>
        <time>2015-10-23T12:07:24Z</time>
      </trkpt>
      <trkpt lat="44.428" lon="5.04954">
        <ele>343</ele>
        <time>2015-10-23T12:07:27Z</time>
      </trkpt>
      <trkpt lat="44.428" lon="5.04954">
        <ele>343</ele>
        <time>2015-10-23T12:07:30Z</time>
      </trkpt>
      <trkpt lat="44.428" lon="5.04954">
        <ele>343</ele>
        <time>2015-10-23T12:07:35Z</time>
      </trkpt>
      <trkpt lat="44.428" lon="5.04954">
        <ele>343</ele>
        <time>2015-10-23T12:07:37Z</time>
      </trkpt>
      <trkpt lat="44.428" lon="5.04954">
        <ele>343</ele>
        <time>2015-10-23T12:07:39Z</time>
      </trkpt>
      <trkpt lat="44.428" lon="5.04954">
        <ele>343</ele>
        <time>2015-10-23T12:07:43Z</time>
      </trkpt>
      <trkpt lat="44.428" lon="5.04954">
        <ele>343</ele>
        <time>2015-10-23T12:07:45Z</time>
      </trkpt>
      <trkpt lat="44.428" lon="5.04954">
        <ele>343</ele>
        <time>2015-10-23T12:07:48Z</time>
      </trkpt>
      <trkpt lat="44.428" lon="5.04954">
        <ele>343</ele>
        <time>2015-10-23T12:07:51Z</time>
      </trkpt>
      <trkpt lat="44.428" lon="5.04954">
        <ele>343</ele>
        <time>2015-10-23T12:07:54Z</time>
      </trkpt>
      <trkpt lat="44.428" lon="5.04954">
        <ele>343</ele>
        <time>2015-10-23T12:07:57Z</time>
      </trkpt>
      <trkpt lat="44.428" lon="5.04954">
        <ele>343</ele>
        <time>2015-10-23T12:08:00Z</time>
      </trkpt>
      <trkpt lat="44.42808" lon="5.04951">
        <ele>350</ele>
        <time>2015-10-23T12:08:11Z</time>
      </trkpt>
      <trkpt lat="44.42808" lon="5.04951">
        <ele>352</ele>
        <time>2015-10-23T12:08:14Z</time>
      </trkpt>
      <trkpt lat="44.42815" lon="5.04951">
        <ele>356</ele>
        <time>2015-10-23T12:08:22Z</time>
      </trkpt>
      <trkpt lat="44.42826" lon="5.04951">
        <ele>363</ele>
        <time>2015-10-23T12:08:33Z</time>
      </trkpt>
      <trkpt lat="44.4284" lon="5.04947">
        <ele>368</ele>
        <time>2015-10-23T12:08:45Z</time>
      </trkpt>
      <trkpt lat="44.42845" lon="5.04944">
        <ele>368</ele>
        <time>2015-10-23T12:08:50Z</time>
      </trkpt>
      <trkpt lat="44.42855" lon="5.04947">
        <ele>370</ele>
        <time>2015-10-23T12:09:01Z</time>
      </trkpt>
      <trkpt lat="44.42865" lon="5.0495">
        <ele>371</ele>
        <time>2015-10-23T12:09:12Z</time>
      </trkpt>
      <trkpt lat="44.42873" lon="5.04955">
        <ele>367</ele>
        <time>2015-10-23T12:09:23Z</time>
      </trkpt>
      <trkpt lat="44.42886" lon="5.04956">
        <ele>366</ele>
        <time>2015-10-23T12:09:34Z</time>
      </trkpt>
      <trkpt lat="44.42906" lon="5.04956">
        <ele>366</ele>
        <time>2015-10-23T12:09:51Z</time>
      </trkpt>
      <trkpt lat="44.42907" lon="5.0496">
        <ele>366</ele>
        <time>2015-10-23T12:09:57Z</time>
      </trkpt>
      <trkpt lat="44.42909" lon="5.0496">
        <ele>366</ele>
        <time>2015-10-23T12:10:09Z</time>
      </trkpt>
      <trkpt lat="44.42909" lon="5.0496">
        <ele>366</ele>
        <time>2015-10-23T12:10:10Z</time>
      </trkpt>
      <trkpt lat="44.42909" lon="5.0496">
        <ele>366</ele>
        <time>2015-10-23T12:10:13Z</time>
      </trkpt>
      <trkpt lat="44.42909" lon="5.0496">
        <ele>366</ele>
        <time>2015-10-23T12:10:16Z</time>
      </trkpt>
      <trkpt lat="44.42909" lon="5.0496">
        <ele>367</ele>
        <time>2015-10-23T12:10:19Z</time>
      </trkpt>
      <trkpt lat="44.42909" lon="5.04961">
        <ele>368</ele>
        <time>2015-10-23T12:10:22Z</time>
      </trkpt>
      <trkpt lat="44.42911" lon="5.04963">
        <ele>371</ele>
        <time>2015-10-23T12:10:26Z</time>
      </trkpt>
      <trkpt lat="44.42916" lon="5.04969">
        <ele>376</ele>
        <time>2015-10-23T12:10:36Z</time>
      </trkpt>
      <trkpt lat="44.4292" lon="5.04972">
        <ele>383</ele>
        <time>2015-10-23T12:10:48Z</time>
      </trkpt>
      <trkpt lat="44.4292" lon="5.04972">
        <ele>383</ele>
        <time>2015-10-23T12:10:58Z</time>
      </trkpt>
      <trkpt lat="44.42934" lon="5.04992">
        <ele>368</ele>
        <time>2015-10-23T12:11:09Z</time>
      </trkpt>
      <trkpt lat="44.42938" lon="5.04998">
        <ele>368</ele>
        <time>2015-10-23T12:11:12Z</time>
      </trkpt>
      <trkpt lat="44.42956" lon="5.05012">
        <ele>371</ele>
        <time>2015-10-23T12:11:23Z</time>
      </trkpt>
      <trkpt lat="44.42967" lon="5.05035">
        <ele>381</ele>
        <time>2015-10-23T12:11:41Z</time>
      </trkpt>
      <trkpt lat="44.42968" lon="5.0504">
        <ele>380</ele>
        <time>2015-10-23T12:11:45Z</time>
      </trkpt>
      <trkpt lat="44.42965" lon="5.05052">
        <ele>380</ele>
        <time>2015-10-23T12:11:59Z</time>
      </trkpt>
      <trkpt lat="44.42963" lon="5.05054">
        <ele>381</ele>
        <time>2015-10-23T12:12:07Z</time>
      </trkpt>
      <trkpt lat="44.42953" lon="5.05067">
        <ele>376</ele>
        <time>2015-10-23T12:12:19Z</time>
      </trkpt>
      <trkpt lat="44.42945" lon="5.05084">
        <ele>378</ele>
        <time>2015-10-23T12:12:33Z</time>
      </trkpt>
      <trkpt lat="44.42941" lon="5.05092">
        <ele>380</ele>
        <time>2015-10-23T12:12:40Z</time>
      </trkpt>
      <trkpt lat="44.42936" lon="5.05101">
        <ele>381</ele>
        <time>2015-10-23T12:12:51Z</time>
      </trkpt>
      <trkpt lat="44.42931" lon="5.05109">
        <ele>381</ele>
        <time>2015-10-23T12:13:03Z</time>
      </trkpt>
      <trkpt lat="44.42929" lon="5.05116">
        <ele>385</ele>
        <time>2015-10-23T12:13:13Z</time>
      </trkpt>
      <trkpt lat="44.42926" lon="5.05126">
        <ele>390</ele>
        <time>2015-10-23T12:13:24Z</time>
      </trkpt>
      <trkpt lat="44.42921" lon="5.05134">
        <ele>393</ele>
        <time>2015-10-23T12:13:35Z</time>
      </trkpt>
      <trkpt lat="44.42917" lon="5.05142">
        <ele>393</ele>
        <time>2015-10-23T12:13:46Z</time>
      </trkpt>
      <trkpt lat="44.42913" lon="5.05152">
        <ele>395</ele>
        <time>2015-10-23T12:14:03Z</time>
      </trkpt>
      <trkpt lat="44.42912" lon="5.05157">
        <ele>396</ele>
        <time>2015-10-23T12:14:08Z</time>
      </trkpt>
      <trkpt lat="44.4291" lon="5.05168">
        <ele>400</ele>
        <time>2015-10-23T12:14:19Z</time>
      </trkpt>
      <trkpt lat="44.4291" lon="5.0517">
        <ele>402</ele>
        <time>2015-10-23T12:14:30Z</time>
      </trkpt>
      <trkpt lat="44.42909" lon="5.0517">
        <ele>401</ele>
        <time>2015-10-23T12:14:33Z</time>
      </trkpt>
      <trkpt lat="44.42909" lon="5.05171">
        <ele>401</ele>
        <time>2015-10-23T12:14:39Z</time>
      </trkpt>
      <trkpt lat="44.42908" lon="5.05172">
        <ele>401</ele>
        <time>2015-10-23T12:14:42Z</time>
      </trkpt>
      <trkpt lat="44.42907" lon="5.05174">
        <ele>400</ele>
        <time>2015-10-23T12:14:45Z</time>
      </trkpt>
      <trkpt lat="44.42902" lon="5.05185">
        <ele>400</ele>
        <time>2015-10-23T12:14:56Z</time>
      </trkpt>
      <trkpt lat="44.42897" lon="5.05197">
        <ele>402</ele>
        <time>2015-10-23T12:15:07Z</time>
      </trkpt>
      <trkpt lat="44.42894" lon="5.05211">
        <ele>405</ele>
        <time>2015-10-23T12:15:18Z</time>
      </trkpt>
      <trkpt lat="44.42892" lon="5.05224">
        <ele>406</ele>
        <time>2015-10-23T12:15:29Z</time>
      </trkpt>
      <trkpt lat="44.4289" lon="5.05241">
        <ele>412</ele>
        <time>2015-10-23T12:15:40Z</time>
      </trkpt>
      <trkpt lat="44.42886" lon="5.05254">
        <ele>411</ele>
        <time>2015-10-23T12:15:51Z</time>
      </trkpt>
      <trkpt lat="44.42881" lon="5.0527">
        <ele>415</ele>
        <time>2015-10-23T12:16:02Z</time>
      </trkpt>
      <trkpt lat="44.42877" lon="5.05285">
        <ele>416</ele>
        <time>2015-10-23T12:16:13Z</time>
      </trkpt>
      <trkpt lat="44.42876" lon="5.05299">
        <ele>418</ele>
        <time>2015-10-23T12:16:24Z</time>
      </trkpt>
      <trkpt lat="44.42876" lon="5.05314">
        <ele>420</ele>
        <time>2015-10-23T12:16:35Z</time>
      </trkpt>
      <trkpt lat="44.42877" lon="5.05329">
        <ele>420</ele>
        <time>2015-10-23T12:16:46Z</time>
      </trkpt>
      <trkpt lat="44.42882" lon="5.05342">
        <ele>418</ele>
        <time>2015-10-23T12:17:00Z</time>
      </trkpt>
      <trkpt lat="44.42885" lon="5.05343">
        <ele>419</ele>
        <time>2015-10-23T12:17:08Z</time>
      </trkpt>
      <trkpt lat="44.42901" lon="5.0534">
        <ele>419</ele>
        <time>2015-10-23T12:17:27Z</time>
      </trkpt>
      <trkpt lat="44.42903" lon="5.0534">
        <ele>419</ele>
        <time>2015-10-23T12:17:30Z</time>
      </trkpt>
      <trkpt lat="44.42909" lon="5.05338">
        <ele>421</ele>
        <time>2015-10-23T12:17:41Z</time>
      </trkpt>
      <trkpt lat="44.42911" lon="5.05337">
        <ele>422</ele>
        <time>2015-10-23T12:17:52Z</time>
      </trkpt>
      <trkpt lat="44.42917" lon="5.05338">
        <ele>420</ele>
        <time>2015-10-23T12:18:03Z</time>
      </trkpt>
      <trkpt lat="44.42925" lon="5.05338">
        <ele>421</ele>
        <time>2015-10-23T12:18:14Z</time>
      </trkpt>
      <trkpt lat="44.42934" lon="5.05341">
        <ele>420</ele>
        <time>2015-10-23T12:18:25Z</time>
      </trkpt>
      <trkpt lat="44.4294" lon="5.05343">
        <ele>421</ele>
        <time>2015-10-23T12:18:36Z</time>
      </trkpt>
      <trkpt lat="44.42947" lon="5.05353">
        <ele>423</ele>
        <time>2015-10-23T12:18:47Z</time>
      </trkpt>
      <trkpt lat="44.42951" lon="5.05355">
        <ele>423</ele>
        <time>2015-10-23T12:18:58Z</time>
      </trkpt>
      <trkpt lat="44.42951" lon="5.05355">
        <ele>423</ele>
        <time>2015-10-23T12:19:09Z</time>
      </trkpt>
      <trkpt lat="44.42951" lon="5.05355">
        <ele>423</ele>
        <time>2015-10-23T12:19:12Z</time>
      </trkpt>
      <trkpt lat="44.42951" lon="5.05355">
        <ele>423</ele>
        <time>2015-10-23T12:19:15Z</time>
      </trkpt>
      <trkpt lat="44.42952" lon="5.05357">
        <ele>424</ele>
        <time>2015-10-23T12:19:18Z</time>
      </trkpt>
      <trkpt lat="44.42959" lon="5.05367">
        <ele>425</ele>
        <time>2015-10-23T12:19:29Z</time>
      </trkpt>
      <trkpt lat="44.42963" lon="5.05372">
        <ele>427</ele>
        <time>2015-10-23T12:19:40Z</time>
      </trkpt>
      <trkpt lat="44.42969" lon="5.05385">
        <ele>428</ele>
        <time>2015-10-23T12:19:51Z</time>
      </trkpt>
      <trkpt lat="44.42971" lon="5.05388">
        <ele>429</ele>
        <time>2015-10-23T12:20:02Z</time>
      </trkpt>
      <trkpt lat="44.42972" lon="5.05395">
        <ele>428</ele>
        <time>2015-10-23T12:20:13Z</time>
      </trkpt>
      <trkpt lat="44.42976" lon="5.05405">
        <ele>428</ele>
        <time>2015-10-23T12:20:24Z</time>
      </trkpt>
      <trkpt lat="44.42984" lon="5.05415">
        <ele>429</ele>
        <time>2015-10-23T12:20:35Z</time>
      </trkpt>
      <trkpt lat="44.42994" lon="5.05425">
        <ele>429</ele>
        <time>2015-10-23T12:20:46Z</time>
      </trkpt>
      <trkpt lat="44.43002" lon="5.05431">
        <ele>430</ele>
        <time>2015-10-23T12:20:57Z</time>
      </trkpt>
      <trkpt lat="44.43008" lon="5.05436">
        <ele>430</ele>
        <time>2015-10-23T12:21:08Z</time>
      </trkpt>
      <trkpt lat="44.43017" lon="5.05445">
        <ele>430</ele>
        <time>2015-10-23T12:21:19Z</time>
      </trkpt>
      <trkpt lat="44.43027" lon="5.05453">
        <ele>431</ele>
        <time>2015-10-23T12:21:30Z</time>
      </trkpt>
      <trkpt lat="44.43035" lon="5.05461">
        <ele>431</ele>
        <time>2015-10-23T12:21:41Z</time>
      </trkpt>
      <trkpt lat="44.43039" lon="5.05465">
        <ele>432</ele>
        <time>2015-10-23T12:21:52Z</time>
      </trkpt>
      <trkpt lat="44.43046" lon="5.05474">
        <ele>430</ele>
        <time>2015-10-23T12:22:03Z</time>
      </trkpt>
      <trkpt lat="44.43052" lon="5.0548">
        <ele>430</ele>
        <time>2015-10-23T12:22:14Z</time>
      </trkpt>
      <trkpt lat="44.43058" lon="5.05488">
        <ele>430</ele>
        <time>2015-10-23T12:22:25Z</time>
      </trkpt>
      <trkpt lat="44.43064" lon="5.055">
        <ele>429</ele>
        <time>2015-10-23T12:22:36Z</time>
      </trkpt>
      <trkpt lat="44.43072" lon="5.05513">
        <ele>431</ele>
        <time>2015-10-23T12:22:49Z</time>
      </trkpt>
      <trkpt lat="44.43088" lon="5.05529">
        <ele>431</ele>
        <time>2015-10-23T12:23:06Z</time>
      </trkpt>
      <trkpt lat="44.43091" lon="5.05533">
        <ele>432</ele>
        <time>2015-10-23T12:23:09Z</time>
      </trkpt>
      <trkpt lat="44.43096" lon="5.05542">
        <ele>431</ele>
        <time>2015-10-23T12:23:20Z</time>
      </trkpt>
      <trkpt lat="44.43102" lon="5.05549">
        <ele>432</ele>
        <time>2015-10-23T12:23:31Z</time>
      </trkpt>
      <trkpt lat="44.4311" lon="5.05557">
        <ele>432</ele>
        <time>2015-10-23T12:23:42Z</time>
      </trkpt>
      <trkpt lat="44.43119" lon="5.05567">
        <ele>431</ele>
        <time>2015-10-23T12:23:53Z</time>
      </trkpt>
      <trkpt lat="44.43127" lon="5.05573">
        <ele>431</ele>
        <time>2015-10-23T12:24:04Z</time>
      </trkpt>
      <trkpt lat="44.43134" lon="5.05579">
        <ele>430</ele>
        <time>2015-10-23T12:24:15Z</time>
      </trkpt>
      <trkpt lat="44.43139" lon="5.05583">
        <ele>429</ele>
        <time>2015-10-23T12:24:26Z</time>
      </trkpt>
      <trkpt lat="44.43142" lon="5.05586">
        <ele>429</ele>
        <time>2015-10-23T12:24:37Z</time>
      </trkpt>
      <trkpt lat="44.43146" lon="5.05592">
        <ele>429</ele>
        <time>2015-10-23T12:24:48Z</time>
      </trkpt>
      <trkpt lat="44.43155" lon="5.056">
        <ele>431</ele>
        <time>2015-10-23T12:24:59Z</time>
      </trkpt>
      <trkpt lat="44.43157" lon="5.05599">
        <ele>430</ele>
        <time>2015-10-23T12:25:10Z</time>
      </trkpt>
      <trkpt lat="44.43158" lon="5.05601">
        <ele>430</ele>
        <time>2015-10-23T12:25:13Z</time>
      </trkpt>
      <trkpt lat="44.43164" lon="5.05613">
        <ele>430</ele>
        <time>2015-10-23T12:25:24Z</time>
      </trkpt>
      <trkpt lat="44.43172" lon="5.05623">
        <ele>430</ele>
        <time>2015-10-23T12:25:35Z</time>
      </trkpt>
      <trkpt lat="44.43181" lon="5.05632">
        <ele>432</ele>
        <time>2015-10-23T12:25:46Z</time>
      </trkpt>
      <trkpt lat="44.43189" lon="5.05641">
        <ele>433</ele>
        <time>2015-10-23T12:25:57Z</time>
      </trkpt>
      <trkpt lat="44.43197" lon="5.05648">
        <ele>435</ele>
        <time>2015-10-23T12:26:08Z</time>
      </trkpt>
      <trkpt lat="44.43206" lon="5.05654">
        <ele>436</ele>
        <time>2015-10-23T12:26:19Z</time>
      </trkpt>
      <trkpt lat="44.43216" lon="5.0566">
        <ele>438</ele>
        <time>2015-10-23T12:26:30Z</time>
      </trkpt>
      <trkpt lat="44.43226" lon="5.05664">
        <ele>438</ele>
        <time>2015-10-23T12:26:41Z</time>
      </trkpt>
      <trkpt lat="44.43234" lon="5.05667">
        <ele>437</ele>
        <time>2015-10-23T12:26:52Z</time>
      </trkpt>
      <trkpt lat="44.43243" lon="5.0567">
        <ele>437</ele>
        <time>2015-10-23T12:27:03Z</time>
      </trkpt>
      <trkpt lat="44.43251" lon="5.05676">
        <ele>437</ele>
        <time>2015-10-23T12:27:14Z</time>
      </trkpt>
      <trkpt lat="44.43262" lon="5.05681">
        <ele>439</ele>
        <time>2015-10-23T12:27:25Z</time>
      </trkpt>
      <trkpt lat="44.43272" lon="5.05686">
        <ele>440</ele>
        <time>2015-10-23T12:27:36Z</time>
      </trkpt>
      <trkpt lat="44.43282" lon="5.05691">
        <ele>440</ele>
        <time>2015-10-23T12:27:47Z</time>
      </trkpt>
      <trkpt lat="44.4329" lon="5.05696">
        <ele>439</ele>
        <time>2015-10-23T12:27:58Z</time>
      </trkpt>
      <trkpt lat="44.433" lon="5.057">
        <ele>438</ele>
        <time>2015-10-23T12:28:09Z</time>
      </trkpt>
      <trkpt lat="44.43308" lon="5.05704">
        <ele>437</ele>
        <time>2015-10-23T12:28:20Z</time>
      </trkpt>
      <trkpt lat="44.43314" lon="5.0571">
        <ele>435</ele>
        <time>2015-10-23T12:28:31Z</time>
      </trkpt>
      <trkpt lat="44.43315" lon="5.05709">
        <ele>437</ele>
        <time>2015-10-23T12:28:42Z</time>
      </trkpt>
      <trkpt lat="44.43315" lon="5.05709">
        <ele>437</ele>
        <time>2015-10-23T12:28:45Z</time>
      </trkpt>
      <trkpt lat="44.43315" lon="5.05708">
        <ele>437</ele>
        <time>2015-10-23T12:28:48Z</time>
      </trkpt>
      <trkpt lat="44.43316" lon="5.05708">
        <ele>437</ele>
        <time>2015-10-23T12:28:51Z</time>
      </trkpt>
      <trkpt lat="44.43316" lon="5.05708">
        <ele>437</ele>
        <time>2015-10-23T12:28:54Z</time>
      </trkpt>
      <trkpt lat="44.43316" lon="5.05708">
        <ele>437</ele>
        <time>2015-10-23T12:28:57Z</time>
      </trkpt>
      <trkpt lat="44.43316" lon="5.05708">
        <ele>437</ele>
        <time>2015-10-23T12:29:00Z</time>
      </trkpt>
      <trkpt lat="44.43316" lon="5.05708">
        <ele>437</ele>
        <time>2015-10-23T12:29:03Z</time>
      </trkpt>
      <trkpt lat="44.43316" lon="5.05708">
        <ele>437</ele>
        <time>2015-10-23T12:29:08Z</time>
      </trkpt>
      <trkpt lat="44.43316" lon="5.05708">
        <ele>437</ele>
        <time>2015-10-23T12:29:09Z</time>
      </trkpt>
      <trkpt lat="44.43316" lon="5.05708">
        <ele>437</ele>
        <time>2015-10-23T12:29:13Z</time>
      </trkpt>
      <trkpt lat="44.43316" lon="5.05708">
        <ele>437</ele>
        <time>2015-10-23T12:29:15Z</time>
      </trkpt>
      <trkpt lat="44.43316" lon="5.05709">
        <ele>437</ele>
        <time>2015-10-23T12:29:18Z</time>
      </trkpt>
      <trkpt lat="44.43318" lon="5.05711">
        <ele>436</ele>
        <time>2015-10-23T12:29:21Z</time>
      </trkpt>
      <trkpt lat="44.43328" lon="5.05716">
        <ele>433</ele>
        <time>2015-10-23T12:29:32Z</time>
      </trkpt>
      <trkpt lat="44.43337" lon="5.05718">
        <ele>431</ele>
        <time>2015-10-23T12:29:43Z</time>
      </trkpt>
      <trkpt lat="44.43342" lon="5.0572">
        <ele>432</ele>
        <time>2015-10-23T12:29:54Z</time>
      </trkpt>
      <trkpt lat="44.43342" lon="5.05721">
        <ele>433</ele>
        <time>2015-10-23T12:30:05Z</time>
      </trkpt>
      <trkpt lat="44.43342" lon="5.0572">
        <ele>433</ele>
        <time>2015-10-23T12:30:08Z</time>
      </trkpt>
      <trkpt lat="44.43342" lon="5.0572">
        <ele>433</ele>
        <time>2015-10-23T12:30:11Z</time>
      </trkpt>
      <trkpt lat="44.43342" lon="5.0572">
        <ele>433</ele>
        <time>2015-10-23T12:30:14Z</time>
      </trkpt>
      <trkpt lat="44.43342" lon="5.0572">
        <ele>433</ele>
        <time>2015-10-23T12:30:17Z</time>
      </trkpt>
      <trkpt lat="44.43342" lon="5.05721">
        <ele>433</ele>
        <time>2015-10-23T12:30:20Z</time>
      </trkpt>
      <trkpt lat="44.43342" lon="5.0572">
        <ele>433</ele>
        <time>2015-10-23T12:30:23Z</time>
      </trkpt>
      <trkpt lat="44.43342" lon="5.0572">
        <ele>433</ele>
        <time>2015-10-23T12:30:26Z</time>
      </trkpt>
      <trkpt lat="44.43342" lon="5.0572">
        <ele>433</ele>
        <time>2015-10-23T12:30:29Z</time>
      </trkpt>
      <trkpt lat="44.43342" lon="5.05721">
        <ele>433</ele>
        <time>2015-10-23T12:30:33Z</time>
      </trkpt>
      <trkpt lat="44.43344" lon="5.05721">
        <ele>431</ele>
        <time>2015-10-23T12:30:36Z</time>
      </trkpt>
      <trkpt lat="44.43352" lon="5.0573">
        <ele>432</ele>
        <time>2015-10-23T12:30:48Z</time>
      </trkpt>
      <trkpt lat="44.43358" lon="5.05741">
        <ele>431</ele>
        <time>2015-10-23T12:30:58Z</time>
      </trkpt>
      <trkpt lat="44.43367" lon="5.05757">
        <ele>434</ele>
        <time>2015-10-23T12:31:13Z</time>
      </trkpt>
      <trkpt lat="44.43371" lon="5.05757">
        <ele>434</ele>
        <time>2015-10-23T12:31:19Z</time>
      </trkpt>
      <trkpt lat="44.43372" lon="5.05757">
        <ele>434</ele>
        <time>2015-10-23T12:31:31Z</time>
      </trkpt>
      <trkpt lat="44.43372" lon="5.05758">
        <ele>433</ele>
        <time>2015-10-23T12:31:33Z</time>
      </trkpt>
      <trkpt lat="44.43385" lon="5.05773">
        <ele>435</ele>
        <time>2015-10-23T12:31:52Z</time>
      </trkpt>
      <trkpt lat="44.43386" lon="5.05772">
        <ele>434</ele>
        <time>2015-10-23T12:31:55Z</time>
      </trkpt>
      <trkpt lat="44.43386" lon="5.05773">
        <ele>436</ele>
        <time>2015-10-23T12:31:58Z</time>
      </trkpt>
      <trkpt lat="44.43388" lon="5.05774">
        <ele>436</ele>
        <time>2015-10-23T12:32:09Z</time>
      </trkpt>
      <trkpt lat="44.43388" lon="5.05774">
        <ele>436</ele>
        <time>2015-10-23T12:32:12Z</time>
      </trkpt>
      <trkpt lat="44.43388" lon="5.05774">
        <ele>437</ele>
        <time>2015-10-23T12:32:15Z</time>
      </trkpt>
      <trkpt lat="44.43387" lon="5.05775">
        <ele>436</ele>
        <time>2015-10-23T12:32:18Z</time>
      </trkpt>
      <trkpt lat="44.43389" lon="5.0578">
        <ele>439</ele>
        <time>2015-10-23T12:32:25Z</time>
      </trkpt>
      <trkpt lat="44.43393" lon="5.05786">
        <ele>439</ele>
        <time>2015-10-23T12:32:32Z</time>
      </trkpt>
      <trkpt lat="44.43395" lon="5.05798">
        <ele>441</ele>
        <time>2015-10-23T12:32:43Z</time>
      </trkpt>
      <trkpt lat="44.43394" lon="5.0581">
        <ele>437</ele>
        <time>2015-10-23T12:32:54Z</time>
      </trkpt>
      <trkpt lat="44.43399" lon="5.05834">
        <ele>435</ele>
        <time>2015-10-23T12:33:13Z</time>
      </trkpt>
      <trkpt lat="44.43403" lon="5.0584">
        <ele>439</ele>
        <time>2015-10-23T12:33:18Z</time>
      </trkpt>
      <trkpt lat="44.43406" lon="5.05844">
        <ele>442</ele>
        <time>2015-10-23T12:33:27Z</time>
      </trkpt>
      <trkpt lat="44.4341" lon="5.05853">
        <ele>444</ele>
        <time>2015-10-23T12:33:38Z</time>
      </trkpt>
      <trkpt lat="44.43411" lon="5.05854">
        <ele>445</ele>
        <time>2015-10-23T12:33:49Z</time>
      </trkpt>
      <trkpt lat="44.43411" lon="5.05854">
        <ele>445</ele>
        <time>2015-10-23T12:33:52Z</time>
      </trkpt>
      <trkpt lat="44.43411" lon="5.05854">
        <ele>445</ele>
        <time>2015-10-23T12:33:55Z</time>
      </trkpt>
      <trkpt lat="44.43411" lon="5.05854">
        <ele>445</ele>
        <time>2015-10-23T12:33:59Z</time>
      </trkpt>
      <trkpt lat="44.43411" lon="5.05854">
        <ele>445</ele>
        <time>2015-10-23T12:34:01Z</time>
      </trkpt>
      <trkpt lat="44.43411" lon="5.05855">
        <ele>444</ele>
        <time>2015-10-23T12:34:04Z</time>
      </trkpt>
      <trkpt lat="44.43412" lon="5.05856">
        <ele>444</ele>
        <time>2015-10-23T12:34:07Z</time>
      </trkpt>
      <trkpt lat="44.43414" lon="5.05862">
        <ele>445</ele>
        <time>2015-10-23T12:34:18Z</time>
      </trkpt>
      <trkpt lat="44.43417" lon="5.05873">
        <ele>450</ele>
        <time>2015-10-23T12:34:30Z</time>
      </trkpt>
      <trkpt lat="44.43419" lon="5.05881">
        <ele>449</ele>
        <time>2015-10-23T12:34:40Z</time>
      </trkpt>
      <trkpt lat="44.4342" lon="5.05887">
        <ele>445</ele>
        <time>2015-10-23T12:34:51Z</time>
      </trkpt>
      <trkpt lat="44.43425" lon="5.05901">
        <ele>451</ele>
        <time>2015-10-23T12:35:04Z</time>
      </trkpt>
      <trkpt lat="44.43424" lon="5.05907">
        <ele>454</ele>
        <time>2015-10-23T12:35:23Z</time>
      </trkpt>
      <trkpt lat="44.43424" lon="5.05907">
        <ele>454</ele>
        <time>2015-10-23T12:35:27Z</time>
      </trkpt>
      <trkpt lat="44.43424" lon="5.05907">
        <ele>454</ele>
        <time>2015-10-23T12:35:31Z</time>
      </trkpt>
      <trkpt lat="44.43424" lon="5.05907">
        <ele>454</ele>
        <time>2015-10-23T12:35:33Z</time>
      </trkpt>
      <trkpt lat="44.43424" lon="5.05907">
        <ele>454</ele>
        <time>2015-10-23T12:35:36Z</time>
      </trkpt>
      <trkpt lat="44.43424" lon="5.05907">
        <ele>454</ele>
        <time>2015-10-23T12:35:39Z</time>
      </trkpt>
      <trkpt lat="44.43424" lon="5.05907">
        <ele>454</ele>
        <time>2015-10-23T12:35:42Z</time>
      </trkpt>
      <trkpt lat="44.43424" lon="5.05907">
        <ele>454</ele>
        <time>2015-10-23T12:35:45Z</time>
      </trkpt>
      <trkpt lat="44.43424" lon="5.05907">
        <ele>454</ele>
        <time>2015-10-23T12:35:48Z</time>
      </trkpt>
      <trkpt lat="44.43424" lon="5.05907">
        <ele>454</ele>
        <time>2015-10-23T12:35:51Z</time>
      </trkpt>
      <trkpt lat="44.43424" lon="5.05907">
        <ele>454</ele>
        <time>2015-10-23T12:35:54Z</time>
      </trkpt>
      <trkpt lat="44.43426" lon="5.0591">
        <ele>455</ele>
        <time>2015-10-23T12:35:58Z</time>
      </trkpt>
      <trkpt lat="44.43433" lon="5.05917">
        <ele>455</ele>
        <time>2015-10-23T12:36:09Z</time>
      </trkpt>
      <trkpt lat="44.4344" lon="5.05928">
        <ele>454</ele>
        <time>2015-10-23T12:36:20Z</time>
      </trkpt>
      <trkpt lat="44.43443" lon="5.05932">
        <ele>453</ele>
        <time>2015-10-23T12:36:30Z</time>
      </trkpt>
      <trkpt lat="44.43444" lon="5.05933">
        <ele>454</ele>
        <time>2015-10-23T12:36:41Z</time>
      </trkpt>
      <trkpt lat="44.43445" lon="5.05933">
        <ele>455</ele>
        <time>2015-10-23T12:36:44Z</time>
      </trkpt>
      <trkpt lat="44.43447" lon="5.05934">
        <ele>457</ele>
        <time>2015-10-23T12:36:55Z</time>
      </trkpt>
      <trkpt lat="44.43447" lon="5.05934">
        <ele>457</ele>
        <time>2015-10-23T12:36:58Z</time>
      </trkpt>
      <trkpt lat="44.43447" lon="5.05934">
        <ele>457</ele>
        <time>2015-10-23T12:37:01Z</time>
      </trkpt>
      <trkpt lat="44.43447" lon="5.05934">
        <ele>457</ele>
        <time>2015-10-23T12:37:04Z</time>
      </trkpt>
      <trkpt lat="44.43447" lon="5.05934">
        <ele>457</ele>
        <time>2015-10-23T12:37:07Z</time>
      </trkpt>
      <trkpt lat="44.43447" lon="5.05934">
        <ele>457</ele>
        <time>2015-10-23T12:37:10Z</time>
      </trkpt>
      <trkpt lat="44.43447" lon="5.05934">
        <ele>457</ele>
        <time>2015-10-23T12:37:13Z</time>
      </trkpt>
      <trkpt lat="44.43447" lon="5.05934">
        <ele>457</ele>
        <time>2015-10-23T12:37:16Z</time>
      </trkpt>
      <trkpt lat="44.43447" lon="5.05934">
        <ele>457</ele>
        <time>2015-10-23T12:37:20Z</time>
      </trkpt>
      <trkpt lat="44.43447" lon="5.05934">
        <ele>457</ele>
        <time>2015-10-23T12:37:24Z</time>
      </trkpt>
      <trkpt lat="44.43447" lon="5.05934">
        <ele>457</ele>
        <time>2015-10-23T12:37:25Z</time>
      </trkpt>
      <trkpt lat="44.43447" lon="5.05934">
        <ele>457</ele>
        <time>2015-10-23T12:37:28Z</time>
      </trkpt>
      <trkpt lat="44.43448" lon="5.05933">
        <ele>454</ele>
        <time>2015-10-23T12:37:37Z</time>
      </trkpt>
      <trkpt lat="44.43448" lon="5.05932">
        <ele>454</ele>
        <time>2015-10-23T12:37:40Z</time>
      </trkpt>
      <trkpt lat="44.43447" lon="5.05932">
        <ele>454</ele>
        <time>2015-10-23T12:37:43Z</time>
      </trkpt>
      <trkpt lat="44.43449" lon="5.05933">
        <ele>453</ele>
        <time>2015-10-23T12:37:47Z</time>
      </trkpt>
      <trkpt lat="44.43451" lon="5.05934">
        <ele>458</ele>
        <time>2015-10-23T12:38:05Z</time>
      </trkpt>
      <trkpt lat="44.43451" lon="5.05934">
        <ele>458</ele>
        <time>2015-10-23T12:38:07Z</time>
      </trkpt>
      <trkpt lat="44.43451" lon="5.05934">
        <ele>458</ele>
        <time>2015-10-23T12:38:09Z</time>
      </trkpt>
      <trkpt lat="44.43451" lon="5.05934">
        <ele>458</ele>
        <time>2015-10-23T12:38:12Z</time>
      </trkpt>
      <trkpt lat="44.43451" lon="5.05934">
        <ele>458</ele>
        <time>2015-10-23T12:38:15Z</time>
      </trkpt>
      <trkpt lat="44.43451" lon="5.05934">
        <ele>458</ele>
        <time>2015-10-23T12:38:18Z</time>
      </trkpt>
      <trkpt lat="44.43451" lon="5.05934">
        <ele>458</ele>
        <time>2015-10-23T12:38:21Z</time>
      </trkpt>
      <trkpt lat="44.43451" lon="5.05934">
        <ele>459</ele>
        <time>2015-10-23T12:38:24Z</time>
      </trkpt>
      <trkpt lat="44.43451" lon="5.05935">
        <ele>459</ele>
        <time>2015-10-23T12:38:30Z</time>
      </trkpt>
      <trkpt lat="44.43451" lon="5.05935">
        <ele>458</ele>
        <time>2015-10-23T12:38:33Z</time>
      </trkpt>
      <trkpt lat="44.43452" lon="5.05935">
        <ele>459</ele>
        <time>2015-10-23T12:38:36Z</time>
      </trkpt>
      <trkpt lat="44.43452" lon="5.05935">
        <ele>459</ele>
        <time>2015-10-23T12:38:39Z</time>
      </trkpt>
      <trkpt lat="44.43452" lon="5.05935">
        <ele>459</ele>
        <time>2015-10-23T12:38:42Z</time>
      </trkpt>
      <trkpt lat="44.43452" lon="5.05936">
        <ele>458</ele>
        <time>2015-10-23T12:38:45Z</time>
      </trkpt>
      <trkpt lat="44.43458" lon="5.05944">
        <ele>458</ele>
        <time>2015-10-23T12:38:56Z</time>
      </trkpt>
      <trkpt lat="44.43459" lon="5.05945">
        <ele>458</ele>
        <time>2015-10-23T12:39:07Z</time>
      </trkpt>
      <trkpt lat="44.43459" lon="5.05945">
        <ele>458</ele>
        <time>2015-10-23T12:39:10Z</time>
      </trkpt>
      <trkpt lat="44.43459" lon="5.05946">
        <ele>458</ele>
        <time>2015-10-23T12:39:13Z</time>
      </trkpt>
      <trkpt lat="44.43461" lon="5.0595">
        <ele>456</ele>
        <time>2015-10-23T12:39:16Z</time>
      </trkpt>
      <trkpt lat="44.4347" lon="5.05969">
        <ele>456</ele>
        <time>2015-10-23T12:39:28Z</time>
      </trkpt>
      <trkpt lat="44.43469" lon="5.05987">
        <ele>462</ele>
        <time>2015-10-23T12:39:47Z</time>
      </trkpt>
      <trkpt lat="44.43469" lon="5.05987">
        <ele>461</ele>
        <time>2015-10-23T12:39:48Z</time>
      </trkpt>
      <trkpt lat="44.43469" lon="5.05988">
        <ele>462</ele>
        <time>2015-10-23T12:39:51Z</time>
      </trkpt>
      <trkpt lat="44.43469" lon="5.05989">
        <ele>462</ele>
        <time>2015-10-23T12:39:57Z</time>
      </trkpt>
      <trkpt lat="44.43469" lon="5.05989">
        <ele>462</ele>
        <time>2015-10-23T12:40:00Z</time>
      </trkpt>
      <trkpt lat="44.43468" lon="5.05991">
        <ele>464</ele>
        <time>2015-10-23T12:40:04Z</time>
      </trkpt>
      <trkpt lat="44.43462" lon="5.05996">
        <ele>468</ele>
        <time>2015-10-23T12:40:24Z</time>
      </trkpt>
      <trkpt lat="44.43462" lon="5.05996">
        <ele>468</ele>
        <time>2015-10-23T12:40:26Z</time>
      </trkpt>
      <trkpt lat="44.43461" lon="5.06">
        <ele>468</ele>
        <time>2015-10-23T12:40:30Z</time>
      </trkpt>
      <trkpt lat="44.43458" lon="5.06016">
        <ele>470</ele>
        <time>2015-10-23T12:40:43Z</time>
      </trkpt>
      <trkpt lat="44.43458" lon="5.06019">
        <ele>471</ele>
        <time>2015-10-23T12:40:50Z</time>
      </trkpt>
      <trkpt lat="44.43458" lon="5.06034">
        <ele>469</ele>
        <time>2015-10-23T12:41:03Z</time>
      </trkpt>
      <trkpt lat="44.43455" lon="5.06064">
        <ele>477</ele>
        <time>2015-10-23T12:41:22Z</time>
      </trkpt>
      <trkpt lat="44.43455" lon="5.06065">
        <ele>476</ele>
        <time>2015-10-23T12:41:23Z</time>
      </trkpt>
      <trkpt lat="44.43454" lon="5.06071">
        <ele>477</ele>
        <time>2015-10-23T12:41:34Z</time>
      </trkpt>
      <trkpt lat="44.43454" lon="5.06072">
        <ele>477</ele>
        <time>2015-10-23T12:41:45Z</time>
      </trkpt>
      <trkpt lat="44.43454" lon="5.06072">
        <ele>477</ele>
        <time>2015-10-23T12:41:48Z</time>
      </trkpt>
      <trkpt lat="44.43452" lon="5.06071">
        <ele>476</ele>
        <time>2015-10-23T12:41:51Z</time>
      </trkpt>
      <trkpt lat="44.43437" lon="5.06083">
        <ele>475</ele>
        <time>2015-10-23T12:42:07Z</time>
      </trkpt>
      <trkpt lat="44.43433" lon="5.06089">
        <ele>475</ele>
        <time>2015-10-23T12:42:13Z</time>
      </trkpt>
      <trkpt lat="44.43428" lon="5.06098">
        <ele>476</ele>
        <time>2015-10-23T12:42:24Z</time>
      </trkpt>
      <trkpt lat="44.43427" lon="5.06103">
        <ele>478</ele>
        <time>2015-10-23T12:42:35Z</time>
      </trkpt>
      <trkpt lat="44.43424" lon="5.06112">
        <ele>479</ele>
        <time>2015-10-23T12:42:46Z</time>
      </trkpt>
      <trkpt lat="44.43423" lon="5.06131">
        <ele>478</ele>
        <time>2015-10-23T12:42:58Z</time>
      </trkpt>
      <trkpt lat="44.43422" lon="5.06137">
        <ele>480</ele>
        <time>2015-10-23T12:43:08Z</time>
      </trkpt>
      <trkpt lat="44.43422" lon="5.0614">
        <ele>482</ele>
        <time>2015-10-23T12:43:19Z</time>
      </trkpt>
      <trkpt lat="44.43421" lon="5.06142">
        <ele>483</ele>
        <time>2015-10-23T12:43:30Z</time>
      </trkpt>
      <trkpt lat="44.43421" lon="5.06142">
        <ele>483</ele>
        <time>2015-10-23T12:43:33Z</time>
      </trkpt>
      <trkpt lat="44.43421" lon="5.06142">
        <ele>483</ele>
        <time>2015-10-23T12:43:36Z</time>
      </trkpt>
      <trkpt lat="44.43421" lon="5.06142">
        <ele>483</ele>
        <time>2015-10-23T12:43:39Z</time>
      </trkpt>
      <trkpt lat="44.43421" lon="5.06142">
        <ele>483</ele>
        <time>2015-10-23T12:43:42Z</time>
      </trkpt>
      <trkpt lat="44.43421" lon="5.06142">
        <ele>483</ele>
        <time>2015-10-23T12:43:45Z</time>
      </trkpt>
      <trkpt lat="44.43421" lon="5.06142">
        <ele>483</ele>
        <time>2015-10-23T12:43:48Z</time>
      </trkpt>
      <trkpt lat="44.43421" lon="5.06142">
        <ele>483</ele>
        <time>2015-10-23T12:43:52Z</time>
      </trkpt>
      <trkpt lat="44.43421" lon="5.06142">
        <ele>483</ele>
        <time>2015-10-23T12:43:54Z</time>
      </trkpt>
      <trkpt lat="44.43421" lon="5.06142">
        <ele>483</ele>
        <time>2015-10-23T12:43:57Z</time>
      </trkpt>
      <trkpt lat="44.43421" lon="5.06143">
        <ele>482</ele>
        <time>2015-10-23T12:44:03Z</time>
      </trkpt>
      <trkpt lat="44.4342" lon="5.06143">
        <ele>482</ele>
        <time>2015-10-23T12:44:06Z</time>
      </trkpt>
      <trkpt lat="44.4342" lon="5.06143">
        <ele>482</ele>
        <time>2015-10-23T12:44:09Z</time>
      </trkpt>
      <trkpt lat="44.43418" lon="5.06144">
        <ele>484</ele>
        <time>2015-10-23T12:44:18Z</time>
      </trkpt>
      <trkpt lat="44.43419" lon="5.06144">
        <ele>484</ele>
        <time>2015-10-23T12:44:21Z</time>
      </trkpt>
      <trkpt lat="44.43419" lon="5.06145">
        <ele>486</ele>
        <time>2015-10-23T12:44:25Z</time>
      </trkpt>
      <trkpt lat="44.43418" lon="5.06147">
        <ele>489</ele>
        <time>2015-10-23T12:44:35Z</time>
      </trkpt>
      <trkpt lat="44.43418" lon="5.06147">
        <ele>489</ele>
        <time>2015-10-23T12:44:38Z</time>
      </trkpt>
      <trkpt lat="44.43418" lon="5.06147">
        <ele>489</ele>
        <time>2015-10-23T12:44:41Z</time>
      </trkpt>
      <trkpt lat="44.43418" lon="5.06147">
        <ele>489</ele>
        <time>2015-10-23T12:44:44Z</time>
      </trkpt>
      <trkpt lat="44.43418" lon="5.06147">
        <ele>489</ele>
        <time>2015-10-23T12:44:47Z</time>
      </trkpt>
      <trkpt lat="44.43418" lon="5.06148">
        <ele>490</ele>
        <time>2015-10-23T12:44:50Z</time>
      </trkpt>
      <trkpt lat="44.43419" lon="5.06151">
        <ele>492</ele>
        <time>2015-10-23T12:45:02Z</time>
      </trkpt>
      <trkpt lat="44.4342" lon="5.06152">
        <ele>493</ele>
        <time>2015-10-23T12:45:12Z</time>
      </trkpt>
      <trkpt lat="44.4342" lon="5.06152">
        <ele>493</ele>
        <time>2015-10-23T12:45:15Z</time>
      </trkpt>
      <trkpt lat="44.4342" lon="5.06152">
        <ele>493</ele>
        <time>2015-10-23T12:45:18Z</time>
      </trkpt>
      <trkpt lat="44.4342" lon="5.06152">
        <ele>493</ele>
        <time>2015-10-23T12:45:21Z</time>
      </trkpt>
      <trkpt lat="44.4342" lon="5.06152">
        <ele>493</ele>
        <time>2015-10-23T12:45:24Z</time>
      </trkpt>
      <trkpt lat="44.4342" lon="5.06152">
        <ele>493</ele>
        <time>2015-10-23T12:45:27Z</time>
      </trkpt>
      <trkpt lat="44.4342" lon="5.06152">
        <ele>493</ele>
        <time>2015-10-23T12:45:30Z</time>
      </trkpt>
      <trkpt lat="44.4342" lon="5.06152">
        <ele>493</ele>
        <time>2015-10-23T12:45:33Z</time>
      </trkpt>
      <trkpt lat="44.4342" lon="5.06152">
        <ele>493</ele>
        <time>2015-10-23T12:45:36Z</time>
      </trkpt>
      <trkpt lat="44.4342" lon="5.06152">
        <ele>493</ele>
        <time>2015-10-23T12:45:39Z</time>
      </trkpt>
      <trkpt lat="44.4342" lon="5.06152">
        <ele>492</ele>
        <time>2015-10-23T12:45:45Z</time>
      </trkpt>
      <trkpt lat="44.43421" lon="5.06152">
        <ele>492</ele>
        <time>2015-10-23T12:45:54Z</time>
      </trkpt>
      <trkpt lat="44.43421" lon="5.06152">
        <ele>491</ele>
        <time>2015-10-23T12:45:57Z</time>
      </trkpt>
      <trkpt lat="44.43422" lon="5.06152">
        <ele>492</ele>
        <time>2015-10-23T12:46:00Z</time>
      </trkpt>
      <trkpt lat="44.43423" lon="5.06154">
        <ele>492</ele>
        <time>2015-10-23T12:46:14Z</time>
      </trkpt>
      <trkpt lat="44.43423" lon="5.06155">
        <ele>492</ele>
        <time>2015-10-23T12:46:17Z</time>
      </trkpt>
      <trkpt lat="44.43423" lon="5.06155">
        <ele>491</ele>
        <time>2015-10-23T12:46:20Z</time>
      </trkpt>
      <trkpt lat="44.43423" lon="5.06155">
        <ele>491</ele>
        <time>2015-10-23T12:46:23Z</time>
      </trkpt>
      <trkpt lat="44.43423" lon="5.06155">
        <ele>491</ele>
        <time>2015-10-23T12:46:26Z</time>
      </trkpt>
      <trkpt lat="44.43423" lon="5.06155">
        <ele>491</ele>
        <time>2015-10-23T12:46:29Z</time>
      </trkpt>
      <trkpt lat="44.43423" lon="5.06155">
        <ele>491</ele>
        <time>2015-10-23T12:46:32Z</time>
      </trkpt>
      <trkpt lat="44.43423" lon="5.06155">
        <ele>491</ele>
        <time>2015-10-23T12:46:35Z</time>
      </trkpt>
      <trkpt lat="44.43423" lon="5.06155">
        <ele>491</ele>
        <time>2015-10-23T12:46:38Z</time>
      </trkpt>
      <trkpt lat="44.43423" lon="5.06155">
        <ele>491</ele>
        <time>2015-10-23T12:46:41Z</time>
      </trkpt>
      <trkpt lat="44.43423" lon="5.06155">
        <ele>491</ele>
        <time>2015-10-23T12:46:44Z</time>
      </trkpt>
      <trkpt lat="44.43423" lon="5.06155">
        <ele>491</ele>
        <time>2015-10-23T12:46:47Z</time>
      </trkpt>
      <trkpt lat="44.43423" lon="5.06155">
        <ele>491</ele>
        <time>2015-10-23T12:46:50Z</time>
      </trkpt>
      <trkpt lat="44.43423" lon="5.06155">
        <ele>491</ele>
        <time>2015-10-23T12:46:54Z</time>
      </trkpt>
      <trkpt lat="44.43423" lon="5.06158">
        <ele>491</ele>
        <time>2015-10-23T12:46:57Z</time>
      </trkpt>
      <trkpt lat="44.43424" lon="5.06164">
        <ele>492</ele>
        <time>2015-10-23T12:47:07Z</time>
      </trkpt>
      <trkpt lat="44.43421" lon="5.06171">
        <ele>498</ele>
        <time>2015-10-23T12:47:26Z</time>
      </trkpt>
      <trkpt lat="44.43421" lon="5.06171">
        <ele>498</ele>
        <time>2015-10-23T12:47:29Z</time>
      </trkpt>
      <trkpt lat="44.43421" lon="5.06171">
        <ele>498</ele>
        <time>2015-10-23T12:47:32Z</time>
      </trkpt>
      <trkpt lat="44.43421" lon="5.06171">
        <ele>498</ele>
        <time>2015-10-23T12:47:35Z</time>
      </trkpt>
      <trkpt lat="44.43421" lon="5.06171">
        <ele>498</ele>
        <time>2015-10-23T12:47:38Z</time>
      </trkpt>
      <trkpt lat="44.43421" lon="5.06171">
        <ele>498</ele>
        <time>2015-10-23T12:47:41Z</time>
      </trkpt>
      <trkpt lat="44.43419" lon="5.06172">
        <ele>497</ele>
        <time>2015-10-23T12:47:45Z</time>
      </trkpt>
      <trkpt lat="44.43419" lon="5.06178">
        <ele>495</ele>
        <time>2015-10-23T12:47:55Z</time>
      </trkpt>
      <trkpt lat="44.43414" lon="5.0619">
        <ele>492</ele>
        <time>2015-10-23T12:48:14Z</time>
      </trkpt>
      <trkpt lat="44.43414" lon="5.06192">
        <ele>493</ele>
        <time>2015-10-23T12:48:23Z</time>
      </trkpt>
      <trkpt lat="44.43412" lon="5.06196">
        <ele>489</ele>
        <time>2015-10-23T12:48:29Z</time>
      </trkpt>
      <trkpt lat="44.43408" lon="5.06207">
        <ele>490</ele>
        <time>2015-10-23T12:48:37Z</time>
      </trkpt>
      <trkpt lat="44.434" lon="5.06228">
        <ele>488</ele>
        <time>2015-10-23T12:48:56Z</time>
      </trkpt>
      <trkpt lat="44.43399" lon="5.06232">
        <ele>491</ele>
        <time>2015-10-23T12:49:03Z</time>
      </trkpt>
      <trkpt lat="44.43399" lon="5.06234">
        <ele>491</ele>
        <time>2015-10-23T12:49:11Z</time>
      </trkpt>
      <trkpt lat="44.43399" lon="5.06234">
        <ele>491</ele>
        <time>2015-10-23T12:49:13Z</time>
      </trkpt>
      <trkpt lat="44.43399" lon="5.06234">
        <ele>491</ele>
        <time>2015-10-23T12:49:16Z</time>
      </trkpt>
      <trkpt lat="44.43399" lon="5.06234">
        <ele>491</ele>
        <time>2015-10-23T12:49:19Z</time>
      </trkpt>
      <trkpt lat="44.43398" lon="5.06234">
        <ele>491</ele>
        <time>2015-10-23T12:49:22Z</time>
      </trkpt>
      <trkpt lat="44.43397" lon="5.06234">
        <ele>493</ele>
        <time>2015-10-23T12:49:25Z</time>
      </trkpt>
      <trkpt lat="44.43393" lon="5.06242">
        <ele>497</ele>
        <time>2015-10-23T12:49:36Z</time>
      </trkpt>
      <trkpt lat="44.4339" lon="5.06257">
        <ele>498</ele>
        <time>2015-10-23T12:49:52Z</time>
      </trkpt>
      <trkpt lat="44.4339" lon="5.06259">
        <ele>498</ele>
        <time>2015-10-23T12:49:58Z</time>
      </trkpt>
      <trkpt lat="44.43391" lon="5.06269">
        <ele>500</ele>
        <time>2015-10-23T12:50:09Z</time>
      </trkpt>
      <trkpt lat="44.43389" lon="5.06286">
        <ele>501</ele>
        <time>2015-10-23T12:50:20Z</time>
      </trkpt>
      <trkpt lat="44.43389" lon="5.06302">
        <ele>509</ele>
        <time>2015-10-23T12:50:38Z</time>
      </trkpt>
      <trkpt lat="44.43389" lon="5.06302">
        <ele>509</ele>
        <time>2015-10-23T12:50:42Z</time>
      </trkpt>
      <trkpt lat="44.4339" lon="5.0631">
        <ele>513</ele>
        <time>2015-10-23T12:50:50Z</time>
      </trkpt>
      <trkpt lat="44.43391" lon="5.06315">
        <ele>515</ele>
        <time>2015-10-23T12:50:56Z</time>
      </trkpt>
      <trkpt lat="44.43391" lon="5.06316">
        <ele>517</ele>
        <time>2015-10-23T12:51:07Z</time>
      </trkpt>
      <trkpt lat="44.43391" lon="5.06316">
        <ele>517</ele>
        <time>2015-10-23T12:51:10Z</time>
      </trkpt>
      <trkpt lat="44.43389" lon="5.06316">
        <ele>517</ele>
        <time>2015-10-23T12:51:17Z</time>
      </trkpt>
      <trkpt lat="44.43391" lon="5.06322">
        <ele>515</ele>
        <time>2015-10-23T12:51:25Z</time>
      </trkpt>
      <trkpt lat="44.43394" lon="5.06329">
        <ele>516</ele>
        <time>2015-10-23T12:51:35Z</time>
      </trkpt>
      <trkpt lat="44.43396" lon="5.0633">
        <ele>517</ele>
        <time>2015-10-23T12:51:49Z</time>
      </trkpt>
      <trkpt lat="44.43396" lon="5.0633">
        <ele>517</ele>
        <time>2015-10-23T12:51:52Z</time>
      </trkpt>
      <trkpt lat="44.43396" lon="5.06331">
        <ele>517</ele>
        <time>2015-10-23T12:51:56Z</time>
      </trkpt>
      <trkpt lat="44.43396" lon="5.06331">
        <ele>517</ele>
        <time>2015-10-23T12:51:58Z</time>
      </trkpt>
      <trkpt lat="44.43396" lon="5.06332">
        <ele>518</ele>
        <time>2015-10-23T12:52:03Z</time>
      </trkpt>
      <trkpt lat="44.43396" lon="5.06337">
        <ele>519</ele>
        <time>2015-10-23T12:52:12Z</time>
      </trkpt>
      <trkpt lat="44.43398" lon="5.06347">
        <ele>522</ele>
        <time>2015-10-23T12:52:23Z</time>
      </trkpt>
      <trkpt lat="44.434" lon="5.0635">
        <ele>523</ele>
        <time>2015-10-23T12:52:34Z</time>
      </trkpt>
      <trkpt lat="44.43402" lon="5.06355">
        <ele>522</ele>
        <time>2015-10-23T12:52:45Z</time>
      </trkpt>
      <trkpt lat="44.43403" lon="5.06362">
        <ele>523</ele>
        <time>2015-10-23T12:52:56Z</time>
      </trkpt>
      <trkpt lat="44.43407" lon="5.06373">
        <ele>527</ele>
        <time>2015-10-23T12:53:08Z</time>
      </trkpt>
      <trkpt lat="44.43416" lon="5.06394">
        <ele>528</ele>
        <time>2015-10-23T12:53:26Z</time>
      </trkpt>
      <trkpt lat="44.43419" lon="5.06401">
        <ele>529</ele>
        <time>2015-10-23T12:53:34Z</time>
      </trkpt>
      <trkpt lat="44.43419" lon="5.06406">
        <ele>527</ele>
        <time>2015-10-23T12:53:40Z</time>
      </trkpt>
      <trkpt lat="44.43421" lon="5.06418">
        <ele>523</ele>
        <time>2015-10-23T12:53:55Z</time>
      </trkpt>
      <trkpt lat="44.43426" lon="5.06423">
        <ele>527</ele>
        <time>2015-10-23T12:54:03Z</time>
      </trkpt>
      <trkpt lat="44.43429" lon="5.06431">
        <ele>526</ele>
        <time>2015-10-23T12:54:13Z</time>
      </trkpt>
      <trkpt lat="44.43432" lon="5.06439">
        <ele>531</ele>
        <time>2015-10-23T12:54:30Z</time>
      </trkpt>
      <trkpt lat="44.43432" lon="5.06439">
        <ele>531</ele>
        <time>2015-10-23T12:54:35Z</time>
      </trkpt>
      <trkpt lat="44.43432" lon="5.06439">
        <ele>531</ele>
        <time>2015-10-23T12:54:40Z</time>
      </trkpt>
      <trkpt lat="44.43432" lon="5.06439">
        <ele>531</ele>
        <time>2015-10-23T12:54:41Z</time>
      </trkpt>
      <trkpt lat="44.43433" lon="5.06441">
        <ele>532</ele>
        <time>2015-10-23T12:54:46Z</time>
      </trkpt>
      <trkpt lat="44.43439" lon="5.06452">
        <ele>536</ele>
        <time>2015-10-23T12:54:57Z</time>
      </trkpt>
      <trkpt lat="44.43442" lon="5.06462">
        <ele>534</ele>
        <time>2015-10-23T12:55:06Z</time>
      </trkpt>
      <trkpt lat="44.43449" lon="5.06479">
        <ele>538</ele>
        <time>2015-10-23T12:55:23Z</time>
      </trkpt>
      <trkpt lat="44.43451" lon="5.06484">
        <ele>540</ele>
        <time>2015-10-23T12:55:29Z</time>
      </trkpt>
      <trkpt lat="44.43454" lon="5.06489">
        <ele>541</ele>
        <time>2015-10-23T12:55:39Z</time>
      </trkpt>
      <trkpt lat="44.43455" lon="5.0649">
        <ele>540</ele>
        <time>2015-10-23T12:55:51Z</time>
      </trkpt>
      <trkpt lat="44.43456" lon="5.06489">
        <ele>540</ele>
        <time>2015-10-23T12:55:59Z</time>
      </trkpt>
      <trkpt lat="44.43456" lon="5.06489">
        <ele>540</ele>
        <time>2015-10-23T12:56:02Z</time>
      </trkpt>
      <trkpt lat="44.43456" lon="5.06489">
        <ele>540</ele>
        <time>2015-10-23T12:56:05Z</time>
      </trkpt>
      <trkpt lat="44.4346" lon="5.06497">
        <ele>536</ele>
        <time>2015-10-23T12:56:18Z</time>
      </trkpt>
      <trkpt lat="44.43461" lon="5.06499">
        <ele>536</ele>
        <time>2015-10-23T12:56:22Z</time>
      </trkpt>
      <trkpt lat="44.43465" lon="5.06507">
        <ele>533</ele>
        <time>2015-10-23T12:56:31Z</time>
      </trkpt>
      <trkpt lat="44.43472" lon="5.06517">
        <ele>537</ele>
        <time>2015-10-23T12:56:41Z</time>
      </trkpt>
      <trkpt lat="44.43475" lon="5.06522">
        <ele>538</ele>
        <time>2015-10-23T12:56:52Z</time>
      </trkpt>
      <trkpt lat="44.43476" lon="5.06523">
        <ele>538</ele>
        <time>2015-10-23T12:57:03Z</time>
      </trkpt>
      <trkpt lat="44.43476" lon="5.06523">
        <ele>538</ele>
        <time>2015-10-23T12:57:06Z</time>
      </trkpt>
      <trkpt lat="44.43476" lon="5.06524">
        <ele>538</ele>
        <time>2015-10-23T12:57:09Z</time>
      </trkpt>
      <trkpt lat="44.43476" lon="5.06524">
        <ele>538</ele>
        <time>2015-10-23T12:57:12Z</time>
      </trkpt>
      <trkpt lat="44.43474" lon="5.06537">
        <ele>544</ele>
        <time>2015-10-23T12:57:31Z</time>
      </trkpt>
      <trkpt lat="44.43474" lon="5.06538">
        <ele>543</ele>
        <time>2015-10-23T12:57:35Z</time>
      </trkpt>
      <trkpt lat="44.43475" lon="5.06542">
        <ele>543</ele>
        <time>2015-10-23T12:57:50Z</time>
      </trkpt>
      <trkpt lat="44.43475" lon="5.06542">
        <ele>543</ele>
        <time>2015-10-23T12:57:51Z</time>
      </trkpt>
      <trkpt lat="44.43474" lon="5.06542">
        <ele>543</ele>
        <time>2015-10-23T12:57:54Z</time>
      </trkpt>
      <trkpt lat="44.43474" lon="5.06542">
        <ele>543</ele>
        <time>2015-10-23T12:57:57Z</time>
      </trkpt>
      <trkpt lat="44.43474" lon="5.06543">
        <ele>543</ele>
        <time>2015-10-23T12:58:00Z</time>
      </trkpt>
      <trkpt lat="44.43472" lon="5.06542">
        <ele>544</ele>
        <time>2015-10-23T12:58:11Z</time>
      </trkpt>
      <trkpt lat="44.43472" lon="5.06542">
        <ele>543</ele>
        <time>2015-10-23T12:58:14Z</time>
      </trkpt>
      <trkpt lat="44.43472" lon="5.06541">
        <ele>543</ele>
        <time>2015-10-23T12:58:17Z</time>
      </trkpt>
      <trkpt lat="44.43472" lon="5.06541">
        <ele>543</ele>
        <time>2015-10-23T12:58:20Z</time>
      </trkpt>
      <trkpt lat="44.43472" lon="5.06541">
        <ele>543</ele>
        <time>2015-10-23T12:58:23Z</time>
      </trkpt>
      <trkpt lat="44.43472" lon="5.06542">
        <ele>543</ele>
        <time>2015-10-23T12:58:26Z</time>
      </trkpt>
      <trkpt lat="44.43472" lon="5.06541">
        <ele>543</ele>
        <time>2015-10-23T12:58:29Z</time>
      </trkpt>
      <trkpt lat="44.43472" lon="5.06542">
        <ele>543</ele>
        <time>2015-10-23T12:58:32Z</time>
      </trkpt>
      <trkpt lat="44.43472" lon="5.06541">
        <ele>543</ele>
        <time>2015-10-23T12:58:35Z</time>
      </trkpt>
      <trkpt lat="44.43472" lon="5.06541">
        <ele>543</ele>
        <time>2015-10-23T12:58:38Z</time>
      </trkpt>
      <trkpt lat="44.43472" lon="5.06541">
        <ele>543</ele>
        <time>2015-10-23T12:58:41Z</time>
      </trkpt>
      <trkpt lat="44.43472" lon="5.06541">
        <ele>543</ele>
        <time>2015-10-23T12:58:44Z</time>
      </trkpt>
      <trkpt lat="44.4347" lon="5.06539">
        <ele>543</ele>
        <time>2015-10-23T12:58:58Z</time>
      </trkpt>
      <trkpt lat="44.43469" lon="5.06539">
        <ele>544</ele>
        <time>2015-10-23T12:59:01Z</time>
      </trkpt>
      <trkpt lat="44.43469" lon="5.06539">
        <ele>544</ele>
        <time>2015-10-23T12:59:04Z</time>
      </trkpt>
      <trkpt lat="44.43467" lon="5.06535">
        <ele>545</ele>
        <time>2015-10-23T12:59:08Z</time>
      </trkpt>
      <trkpt lat="44.43455" lon="5.06523">
        <ele>548</ele>
        <time>2015-10-23T12:59:23Z</time>
      </trkpt>
      <trkpt lat="44.4345" lon="5.06518">
        <ele>547</ele>
        <time>2015-10-23T12:59:29Z</time>
      </trkpt>
      <trkpt lat="44.4344" lon="5.06506">
        <ele>549</ele>
        <time>2015-10-23T12:59:48Z</time>
      </trkpt>
      <trkpt lat="44.43438" lon="5.06504">
        <ele>549</ele>
        <time>2015-10-23T12:59:53Z</time>
      </trkpt>
      <trkpt lat="44.43432" lon="5.06498">
        <ele>549</ele>
        <time>2015-10-23T13:00:02Z</time>
      </trkpt>
      <trkpt lat="44.43426" lon="5.06489">
        <ele>548</ele>
        <time>2015-10-23T13:00:14Z</time>
      </trkpt>
      <trkpt lat="44.4342" lon="5.06479">
        <ele>546</ele>
        <time>2015-10-23T13:00:30Z</time>
      </trkpt>
      <trkpt lat="44.4342" lon="5.06479">
        <ele>546</ele>
        <time>2015-10-23T13:00:35Z</time>
      </trkpt>
      <trkpt lat="44.43419" lon="5.06478">
        <ele>544</ele>
        <time>2015-10-23T13:00:38Z</time>
      </trkpt>
      <trkpt lat="44.43414" lon="5.06473">
        <ele>543</ele>
        <time>2015-10-23T13:00:49Z</time>
      </trkpt>
      <trkpt lat="44.43412" lon="5.06472">
        <ele>546</ele>
        <time>2015-10-23T13:01:00Z</time>
      </trkpt>
      <trkpt lat="44.43412" lon="5.06471">
        <ele>546</ele>
        <time>2015-10-23T13:01:03Z</time>
      </trkpt>
      <trkpt lat="44.43412" lon="5.06471">
        <ele>546</ele>
        <time>2015-10-23T13:01:06Z</time>
      </trkpt>
      <trkpt lat="44.4341" lon="5.06468">
        <ele>547</ele>
        <time>2015-10-23T13:01:10Z</time>
      </trkpt>
      <trkpt lat="44.43402" lon="5.06462">
        <ele>547</ele>
        <time>2015-10-23T13:01:20Z</time>
      </trkpt>
      <trkpt lat="44.43398" lon="5.06458">
        <ele>547</ele>
        <time>2015-10-23T13:01:32Z</time>
      </trkpt>
      <trkpt lat="44.43398" lon="5.06458">
        <ele>548</ele>
        <time>2015-10-23T13:01:42Z</time>
      </trkpt>
      <trkpt lat="44.43398" lon="5.06458">
        <ele>548</ele>
        <time>2015-10-23T13:01:45Z</time>
      </trkpt>
      <trkpt lat="44.43398" lon="5.06458">
        <ele>548</ele>
        <time>2015-10-23T13:01:48Z</time>
      </trkpt>
      <trkpt lat="44.43397" lon="5.06458">
        <ele>548</ele>
        <time>2015-10-23T13:01:52Z</time>
      </trkpt>
      <trkpt lat="44.43397" lon="5.06458">
        <ele>548</ele>
        <time>2015-10-23T13:01:54Z</time>
      </trkpt>
      <trkpt lat="44.43392" lon="5.06454">
        <ele>548</ele>
        <time>2015-10-23T13:02:07Z</time>
      </trkpt>
      <trkpt lat="44.43391" lon="5.06454">
        <ele>548</ele>
        <time>2015-10-23T13:02:11Z</time>
      </trkpt>
      <trkpt lat="44.43391" lon="5.06454">
        <ele>548</ele>
        <time>2015-10-23T13:02:14Z</time>
      </trkpt>
      <trkpt lat="44.43391" lon="5.06454">
        <ele>548</ele>
        <time>2015-10-23T13:02:17Z</time>
      </trkpt>
      <trkpt lat="44.43391" lon="5.06454">
        <ele>548</ele>
        <time>2015-10-23T13:02:20Z</time>
      </trkpt>
      <trkpt lat="44.43391" lon="5.06454">
        <ele>548</ele>
        <time>2015-10-23T13:02:23Z</time>
      </trkpt>
      <trkpt lat="44.43391" lon="5.06454">
        <ele>548</ele>
        <time>2015-10-23T13:02:26Z</time>
      </trkpt>
      <trkpt lat="44.43391" lon="5.06454">
        <ele>548</ele>
        <time>2015-10-23T13:02:29Z</time>
      </trkpt>
      <trkpt lat="44.43391" lon="5.06454">
        <ele>548</ele>
        <time>2015-10-23T13:02:32Z</time>
      </trkpt>
      <trkpt lat="44.43391" lon="5.06454">
        <ele>548</ele>
        <time>2015-10-23T13:02:35Z</time>
      </trkpt>
      <trkpt lat="44.43391" lon="5.06454">
        <ele>548</ele>
        <time>2015-10-23T13:02:38Z</time>
      </trkpt>
      <trkpt lat="44.43382" lon="5.0644">
        <ele>549</ele>
        <time>2015-10-23T13:02:49Z</time>
      </trkpt>
      <trkpt lat="44.43382" lon="5.06439">
        <ele>549</ele>
        <time>2015-10-23T13:02:55Z</time>
      </trkpt>
      <trkpt lat="44.43381" lon="5.0644">
        <ele>546</ele>
        <time>2015-10-23T13:02:58Z</time>
      </trkpt>
      <trkpt lat="44.43382" lon="5.06441">
        <ele>543</ele>
        <time>2015-10-23T13:03:09Z</time>
      </trkpt>
      <trkpt lat="44.43382" lon="5.06441">
        <ele>542</ele>
        <time>2015-10-23T13:03:12Z</time>
      </trkpt>
      <trkpt lat="44.43383" lon="5.06441">
        <ele>543</ele>
        <time>2015-10-23T13:03:15Z</time>
      </trkpt>
      <trkpt lat="44.43382" lon="5.06441">
        <ele>543</ele>
        <time>2015-10-23T13:03:18Z</time>
      </trkpt>
      <trkpt lat="44.43382" lon="5.06441">
        <ele>543</ele>
        <time>2015-10-23T13:03:21Z</time>
      </trkpt>
      <trkpt lat="44.43382" lon="5.06441">
        <ele>543</ele>
        <time>2015-10-23T13:03:24Z</time>
      </trkpt>
      <trkpt lat="44.43382" lon="5.06441">
        <ele>543</ele>
        <time>2015-10-23T13:03:27Z</time>
      </trkpt>
      <trkpt lat="44.43382" lon="5.06441">
        <ele>543</ele>
        <time>2015-10-23T13:03:30Z</time>
      </trkpt>
      <trkpt lat="44.43382" lon="5.06441">
        <ele>544</ele>
        <time>2015-10-23T13:03:33Z</time>
      </trkpt>
      <trkpt lat="44.43381" lon="5.06442">
        <ele>543</ele>
        <time>2015-10-23T13:03:36Z</time>
      </trkpt>
      <trkpt lat="44.4338" lon="5.06442">
        <ele>543</ele>
        <time>2015-10-23T13:03:48Z</time>
      </trkpt>
      <trkpt lat="44.4338" lon="5.06443">
        <ele>544</ele>
        <time>2015-10-23T13:03:50Z</time>
      </trkpt>
      <trkpt lat="44.4338" lon="5.06443">
        <ele>543</ele>
        <time>2015-10-23T13:03:54Z</time>
      </trkpt>
      <trkpt lat="44.4338" lon="5.06443">
        <ele>544</ele>
        <time>2015-10-23T13:03:56Z</time>
      </trkpt>
      <trkpt lat="44.43379" lon="5.06443">
        <ele>544</ele>
        <time>2015-10-23T13:03:59Z</time>
      </trkpt>
      <trkpt lat="44.43379" lon="5.06443">
        <ele>544</ele>
        <time>2015-10-23T13:04:02Z</time>
      </trkpt>
      <trkpt lat="44.43377" lon="5.06443">
        <ele>543</ele>
        <time>2015-10-23T13:04:07Z</time>
      </trkpt>
      <trkpt lat="44.43374" lon="5.06443">
        <ele>545</ele>
        <time>2015-10-23T13:04:16Z</time>
      </trkpt>
      <trkpt lat="44.43373" lon="5.0644">
        <ele>544</ele>
        <time>2015-10-23T13:04:30Z</time>
      </trkpt>
      <trkpt lat="44.43373" lon="5.0644">
        <ele>545</ele>
        <time>2015-10-23T13:04:33Z</time>
      </trkpt>
      <trkpt lat="44.43373" lon="5.0644">
        <ele>545</ele>
        <time>2015-10-23T13:04:36Z</time>
      </trkpt>
      <trkpt lat="44.43373" lon="5.0644">
        <ele>545</ele>
        <time>2015-10-23T13:04:39Z</time>
      </trkpt>
      <trkpt lat="44.43373" lon="5.0644">
        <ele>545</ele>
        <time>2015-10-23T13:04:42Z</time>
      </trkpt>
      <trkpt lat="44.43373" lon="5.0644">
        <ele>545</ele>
        <time>2015-10-23T13:04:45Z</time>
      </trkpt>
      <trkpt lat="44.43373" lon="5.0644">
        <ele>545</ele>
        <time>2015-10-23T13:04:48Z</time>
      </trkpt>
      <trkpt lat="44.43373" lon="5.0644">
        <ele>545</ele>
        <time>2015-10-23T13:04:51Z</time>
      </trkpt>
      <trkpt lat="44.43373" lon="5.0644">
        <ele>545</ele>
        <time>2015-10-23T13:04:54Z</time>
      </trkpt>
      <trkpt lat="44.43373" lon="5.0644">
        <ele>545</ele>
        <time>2015-10-23T13:04:57Z</time>
      </trkpt>
      <trkpt lat="44.43373" lon="5.0644">
        <ele>545</ele>
        <time>2015-10-23T13:05:00Z</time>
      </trkpt>
      <trkpt lat="44.43373" lon="5.0644">
        <ele>545</ele>
        <time>2015-10-23T13:05:03Z</time>
      </trkpt>
      <trkpt lat="44.43373" lon="5.0644">
        <ele>545</ele>
        <time>2015-10-23T13:05:06Z</time>
      </trkpt>
      <trkpt lat="44.43373" lon="5.0644">
        <ele>545</ele>
        <time>2015-10-23T13:05:09Z</time>
      </trkpt>
      <trkpt lat="44.43373" lon="5.0644">
        <ele>545</ele>
        <time>2015-10-23T13:05:12Z</time>
      </trkpt>
      <trkpt lat="44.43373" lon="5.0644">
        <ele>545</ele>
        <time>2015-10-23T13:05:15Z</time>
      </trkpt>
      <trkpt lat="44.43373" lon="5.0644">
        <ele>545</ele>
        <time>2015-10-23T13:05:18Z</time>
      </trkpt>
      <trkpt lat="44.43373" lon="5.0644">
        <ele>545</ele>
        <time>2015-10-23T13:05:21Z</time>
      </trkpt>
      <trkpt lat="44.43373" lon="5.0644">
        <ele>545</ele>
        <time>2015-10-23T13:05:24Z</time>
      </trkpt>
      <trkpt lat="44.43373" lon="5.0644">
        <ele>545</ele>
        <time>2015-10-23T13:05:27Z</time>
      </trkpt>
      <trkpt lat="44.43373" lon="5.0644">
        <ele>545</ele>
        <time>2015-10-23T13:05:32Z</time>
      </trkpt>
      <trkpt lat="44.43373" lon="5.0644">
        <ele>545</ele>
        <time>2015-10-23T13:05:33Z</time>
      </trkpt>
      <trkpt lat="44.43373" lon="5.0644">
        <ele>545</ele>
        <time>2015-10-23T13:05:36Z</time>
      </trkpt>
      <trkpt lat="44.43373" lon="5.0644">
        <ele>545</ele>
        <time>2015-10-23T13:05:39Z</time>
      </trkpt>
      <trkpt lat="44.43374" lon="5.0644">
        <ele>545</ele>
        <time>2015-10-23T13:05:42Z</time>
      </trkpt>
      <trkpt lat="44.43369" lon="5.06442">
        <ele>542</ele>
        <time>2015-10-23T13:05:50Z</time>
      </trkpt>
      <trkpt lat="44.43366" lon="5.06442">
        <ele>542</ele>
        <time>2015-10-23T13:05:56Z</time>
      </trkpt>
      <trkpt lat="44.43365" lon="5.06441">
        <ele>541</ele>
        <time>2015-10-23T13:06:09Z</time>
      </trkpt>
      <trkpt lat="44.43365" lon="5.06441">
        <ele>541</ele>
        <time>2015-10-23T13:06:10Z</time>
      </trkpt>
      <trkpt lat="44.43365" lon="5.06441">
        <ele>541</ele>
        <time>2015-10-23T13:06:13Z</time>
      </trkpt>
      <trkpt lat="44.43365" lon="5.06441">
        <ele>541</ele>
        <time>2015-10-23T13:06:16Z</time>
      </trkpt>
      <trkpt lat="44.43365" lon="5.06441">
        <ele>541</ele>
        <time>2015-10-23T13:06:19Z</time>
      </trkpt>
      <trkpt lat="44.43365" lon="5.06441">
        <ele>541</ele>
        <time>2015-10-23T13:06:24Z</time>
      </trkpt>
      <trkpt lat="44.43365" lon="5.06441">
        <ele>541</ele>
        <time>2015-10-23T13:06:27Z</time>
      </trkpt>
      <trkpt lat="44.43365" lon="5.06441">
        <ele>541</ele>
        <time>2015-10-23T13:06:30Z</time>
      </trkpt>
      <trkpt lat="44.43365" lon="5.06441">
        <ele>541</ele>
        <time>2015-10-23T13:06:31Z</time>
      </trkpt>
      <trkpt lat="44.43365" lon="5.06441">
        <ele>541</ele>
        <time>2015-10-23T13:06:34Z</time>
      </trkpt>
      <trkpt lat="44.43365" lon="5.06441">
        <ele>541</ele>
        <time>2015-10-23T13:06:39Z</time>
      </trkpt>
      <trkpt lat="44.43365" lon="5.06441">
        <ele>541</ele>
        <time>2015-10-23T13:06:41Z</time>
      </trkpt>
      <trkpt lat="44.43365" lon="5.06441">
        <ele>541</ele>
        <time>2015-10-23T13:06:45Z</time>
      </trkpt>
      <trkpt lat="44.43365" lon="5.06441">
        <ele>541</ele>
        <time>2015-10-23T13:06:46Z</time>
      </trkpt>
      <trkpt lat="44.43365" lon="5.06441">
        <ele>541</ele>
        <time>2015-10-23T13:06:49Z</time>
      </trkpt>
      <trkpt lat="44.43364" lon="5.06441">
        <ele>543</ele>
        <time>2015-10-23T13:06:52Z</time>
      </trkpt>
      <trkpt lat="44.43363" lon="5.06439">
        <ele>543</ele>
        <time>2015-10-23T13:06:55Z</time>
      </trkpt>
      <trkpt lat="44.43358" lon="5.06431">
        <ele>545</ele>
        <time>2015-10-23T13:07:07Z</time>
      </trkpt>
      <trkpt lat="44.43349" lon="5.06427">
        <ele>548</ele>
        <time>2015-10-23T13:07:20Z</time>
      </trkpt>
      <trkpt lat="44.43343" lon="5.06424">
        <ele>542</ele>
        <time>2015-10-23T13:07:28Z</time>
      </trkpt>
      <trkpt lat="44.43335" lon="5.06418">
        <ele>546</ele>
        <time>2015-10-23T13:07:39Z</time>
      </trkpt>
      <trkpt lat="44.43333" lon="5.06416">
        <ele>548</ele>
        <time>2015-10-23T13:07:56Z</time>
      </trkpt>
      <trkpt lat="44.43333" lon="5.06416">
        <ele>548</ele>
        <time>2015-10-23T13:07:59Z</time>
      </trkpt>
      <trkpt lat="44.43333" lon="5.06416">
        <ele>548</ele>
        <time>2015-10-23T13:08:02Z</time>
      </trkpt>
      <trkpt lat="44.43333" lon="5.06416">
        <ele>548</ele>
        <time>2015-10-23T13:08:05Z</time>
      </trkpt>
      <trkpt lat="44.43333" lon="5.06416">
        <ele>548</ele>
        <time>2015-10-23T13:08:08Z</time>
      </trkpt>
      <trkpt lat="44.43333" lon="5.06416">
        <ele>548</ele>
        <time>2015-10-23T13:08:11Z</time>
      </trkpt>
      <trkpt lat="44.43333" lon="5.06416">
        <ele>548</ele>
        <time>2015-10-23T13:08:14Z</time>
      </trkpt>
      <trkpt lat="44.43333" lon="5.06416">
        <ele>548</ele>
        <time>2015-10-23T13:08:17Z</time>
      </trkpt>
      <trkpt lat="44.43329" lon="5.06417">
        <ele>547</ele>
        <time>2015-10-23T13:08:21Z</time>
      </trkpt>
      <trkpt lat="44.4332" lon="5.06416">
        <ele>544</ele>
        <time>2015-10-23T13:08:33Z</time>
      </trkpt>
      <trkpt lat="44.43315" lon="5.06418">
        <ele>544</ele>
        <time>2015-10-23T13:08:42Z</time>
      </trkpt>
      <trkpt lat="44.43313" lon="5.06419">
        <ele>540</ele>
        <time>2015-10-23T13:08:53Z</time>
      </trkpt>
      <trkpt lat="44.43307" lon="5.0642">
        <ele>539</ele>
        <time>2015-10-23T13:09:04Z</time>
      </trkpt>
      <trkpt lat="44.43298" lon="5.06424">
        <ele>540</ele>
        <time>2015-10-23T13:09:22Z</time>
      </trkpt>
      <trkpt lat="44.43293" lon="5.06426">
        <ele>541</ele>
        <time>2015-10-23T13:09:29Z</time>
      </trkpt>
      <trkpt lat="44.4328" lon="5.06431">
        <ele>543</ele>
        <time>2015-10-23T13:09:44Z</time>
      </trkpt>
      <trkpt lat="44.43278" lon="5.06433">
        <ele>544</ele>
        <time>2015-10-23T13:09:48Z</time>
      </trkpt>
      <trkpt lat="44.43273" lon="5.06437">
        <ele>542</ele>
        <time>2015-10-23T13:10:00Z</time>
      </trkpt>
      <trkpt lat="44.43258" lon="5.0645">
        <ele>541</ele>
        <time>2015-10-23T13:10:20Z</time>
      </trkpt>
      <trkpt lat="44.43258" lon="5.0645">
        <ele>541</ele>
        <time>2015-10-23T13:10:21Z</time>
      </trkpt>
      <trkpt lat="44.4325" lon="5.06448">
        <ele>548</ele>
        <time>2015-10-23T13:10:32Z</time>
      </trkpt>
      <trkpt lat="44.43248" lon="5.06448">
        <ele>548</ele>
        <time>2015-10-23T13:10:43Z</time>
      </trkpt>
      <trkpt lat="44.43249" lon="5.06449">
        <ele>546</ele>
        <time>2015-10-23T13:10:52Z</time>
      </trkpt>
      <trkpt lat="44.43249" lon="5.06449">
        <ele>546</ele>
        <time>2015-10-23T13:10:55Z</time>
      </trkpt>
      <trkpt lat="44.43249" lon="5.06449">
        <ele>546</ele>
        <time>2015-10-23T13:10:58Z</time>
      </trkpt>
      <trkpt lat="44.43249" lon="5.06449">
        <ele>546</ele>
        <time>2015-10-23T13:11:01Z</time>
      </trkpt>
      <trkpt lat="44.43249" lon="5.06449">
        <ele>546</ele>
        <time>2015-10-23T13:11:04Z</time>
      </trkpt>
      <trkpt lat="44.43249" lon="5.06449">
        <ele>546</ele>
        <time>2015-10-23T13:11:07Z</time>
      </trkpt>
      <trkpt lat="44.43249" lon="5.06449">
        <ele>546</ele>
        <time>2015-10-23T13:11:10Z</time>
      </trkpt>
      <trkpt lat="44.43249" lon="5.06449">
        <ele>546</ele>
        <time>2015-10-23T13:11:13Z</time>
      </trkpt>
      <trkpt lat="44.43249" lon="5.06449">
        <ele>546</ele>
        <time>2015-10-23T13:11:16Z</time>
      </trkpt>
      <trkpt lat="44.43249" lon="5.06449">
        <ele>546</ele>
        <time>2015-10-23T13:11:19Z</time>
      </trkpt>
      <trkpt lat="44.43249" lon="5.06449">
        <ele>546</ele>
        <time>2015-10-23T13:11:22Z</time>
      </trkpt>
      <trkpt lat="44.43249" lon="5.06449">
        <ele>546</ele>
        <time>2015-10-23T13:11:25Z</time>
      </trkpt>
      <trkpt lat="44.43249" lon="5.06449">
        <ele>546</ele>
        <time>2015-10-23T13:11:30Z</time>
      </trkpt>
      <trkpt lat="44.43249" lon="5.06449">
        <ele>546</ele>
        <time>2015-10-23T13:11:32Z</time>
      </trkpt>
      <trkpt lat="44.43249" lon="5.06449">
        <ele>546</ele>
        <time>2015-10-23T13:11:36Z</time>
      </trkpt>
      <trkpt lat="44.43249" lon="5.06449">
        <ele>546</ele>
        <time>2015-10-23T13:11:38Z</time>
      </trkpt>
      <trkpt lat="44.43249" lon="5.06449">
        <ele>546</ele>
        <time>2015-10-23T13:11:40Z</time>
      </trkpt>
      <trkpt lat="44.43249" lon="5.06449">
        <ele>546</ele>
        <time>2015-10-23T13:11:45Z</time>
      </trkpt>
      <trkpt lat="44.43249" lon="5.06449">
        <ele>546</ele>
        <time>2015-10-23T13:11:46Z</time>
      </trkpt>
      <trkpt lat="44.43249" lon="5.06449">
        <ele>546</ele>
        <time>2015-10-23T13:11:50Z</time>
      </trkpt>
      <trkpt lat="44.43249" lon="5.06449">
        <ele>546</ele>
        <time>2015-10-23T13:11:53Z</time>
      </trkpt>
      <trkpt lat="44.43249" lon="5.06449">
        <ele>546</ele>
        <time>2015-10-23T13:11:55Z</time>
      </trkpt>
      <trkpt lat="44.43249" lon="5.06449">
        <ele>546</ele>
        <time>2015-10-23T13:11:58Z</time>
      </trkpt>
      <trkpt lat="44.43249" lon="5.06449">
        <ele>546</ele>
        <time>2015-10-23T13:12:01Z</time>
      </trkpt>
      <trkpt lat="44.43249" lon="5.06449">
        <ele>546</ele>
        <time>2015-10-23T13:12:04Z</time>
      </trkpt>
      <trkpt lat="44.43249" lon="5.06449">
        <ele>546</ele>
        <time>2015-10-23T13:12:08Z</time>
      </trkpt>
      <trkpt lat="44.43249" lon="5.06449">
        <ele>546</ele>
        <time>2015-10-23T13:12:10Z</time>
      </trkpt>
      <trkpt lat="44.43249" lon="5.06449">
        <ele>546</ele>
        <time>2015-10-23T13:12:13Z</time>
      </trkpt>
      <trkpt lat="44.43249" lon="5.06449">
        <ele>546</ele>
        <time>2015-10-23T13:12:16Z</time>
      </trkpt>
      <trkpt lat="44.43249" lon="5.06449">
        <ele>546</ele>
        <time>2015-10-23T13:12:19Z</time>
      </trkpt>
      <trkpt lat="44.43249" lon="5.06449">
        <ele>546</ele>
        <time>2015-10-23T13:12:22Z</time>
      </trkpt>
      <trkpt lat="44.43249" lon="5.06449">
        <ele>546</ele>
        <time>2015-10-23T13:12:27Z</time>
      </trkpt>
      <trkpt lat="44.43249" lon="5.06449">
        <ele>546</ele>
        <time>2015-10-23T13:12:29Z</time>
      </trkpt>
      <trkpt lat="44.43249" lon="5.06449">
        <ele>546</ele>
        <time>2015-10-23T13:12:31Z</time>
      </trkpt>
      <trkpt lat="44.43249" lon="5.06449">
        <ele>546</ele>
        <time>2015-10-23T13:12:36Z</time>
      </trkpt>
      <trkpt lat="44.43249" lon="5.06449">
        <ele>546</ele>
        <time>2015-10-23T13:12:39Z</time>
      </trkpt>
      <trkpt lat="44.43249" lon="5.06449">
        <ele>546</ele>
        <time>2015-10-23T13:12:40Z</time>
      </trkpt>
      <trkpt lat="44.43248" lon="5.0645">
        <ele>546</ele>
        <time>2015-10-23T13:12:44Z</time>
      </trkpt>
      <trkpt lat="44.43241" lon="5.06456">
        <ele>547</ele>
        <time>2015-10-23T13:12:56Z</time>
      </trkpt>
      <trkpt lat="44.43234" lon="5.06459">
        <ele>545</ele>
        <time>2015-10-23T13:13:07Z</time>
      </trkpt>
      <trkpt lat="44.43227" lon="5.06459">
        <ele>544</ele>
        <time>2015-10-23T13:13:16Z</time>
      </trkpt>
      <trkpt lat="44.43222" lon="5.06463">
        <ele>543</ele>
        <time>2015-10-23T13:13:27Z</time>
      </trkpt>
      <trkpt lat="44.43222" lon="5.06464">
        <ele>543</ele>
        <time>2015-10-23T13:13:38Z</time>
      </trkpt>
      <trkpt lat="44.43222" lon="5.06464">
        <ele>543</ele>
        <time>2015-10-23T13:13:41Z</time>
      </trkpt>
      <trkpt lat="44.43222" lon="5.06464">
        <ele>543</ele>
        <time>2015-10-23T13:13:44Z</time>
      </trkpt>
      <trkpt lat="44.43222" lon="5.06464">
        <ele>543</ele>
        <time>2015-10-23T13:13:47Z</time>
      </trkpt>
      <trkpt lat="44.43222" lon="5.06464">
        <ele>543</ele>
        <time>2015-10-23T13:13:50Z</time>
      </trkpt>
      <trkpt lat="44.43222" lon="5.06464">
        <ele>543</ele>
        <time>2015-10-23T13:13:53Z</time>
      </trkpt>
      <trkpt lat="44.43222" lon="5.06464">
        <ele>543</ele>
        <time>2015-10-23T13:13:56Z</time>
      </trkpt>
      <trkpt lat="44.43222" lon="5.06464">
        <ele>543</ele>
        <time>2015-10-23T13:13:59Z</time>
      </trkpt>
      <trkpt lat="44.43218" lon="5.06462">
        <ele>550</ele>
        <time>2015-10-23T13:14:04Z</time>
      </trkpt>
      <trkpt lat="44.43216" lon="5.06462">
        <ele>550</ele>
        <time>2015-10-23T13:14:13Z</time>
      </trkpt>
      <trkpt lat="44.43215" lon="5.06463">
        <ele>551</ele>
        <time>2015-10-23T13:14:24Z</time>
      </trkpt>
      <trkpt lat="44.43215" lon="5.06463">
        <ele>551</ele>
        <time>2015-10-23T13:14:27Z</time>
      </trkpt>
      <trkpt lat="44.43214" lon="5.06463">
        <ele>551</ele>
        <time>2015-10-23T13:14:32Z</time>
      </trkpt>
      <trkpt lat="44.43213" lon="5.06465">
        <ele>551</ele>
        <time>2015-10-23T13:14:41Z</time>
      </trkpt>
      <trkpt lat="44.4321" lon="5.06469">
        <ele>553</ele>
        <time>2015-10-23T13:14:56Z</time>
      </trkpt>
      <trkpt lat="44.43204" lon="5.06471">
        <ele>555</ele>
        <time>2015-10-23T13:15:11Z</time>
      </trkpt>
      <trkpt lat="44.43204" lon="5.06472">
        <ele>555</ele>
        <time>2015-10-23T13:15:17Z</time>
      </trkpt>
      <trkpt lat="44.43202" lon="5.06472">
        <ele>556</ele>
        <time>2015-10-23T13:15:21Z</time>
      </trkpt>
      <trkpt lat="44.43198" lon="5.06478">
        <ele>559</ele>
        <time>2015-10-23T13:15:31Z</time>
      </trkpt>
      <trkpt lat="44.43197" lon="5.06479">
        <ele>560</ele>
        <time>2015-10-23T13:15:42Z</time>
      </trkpt>
      <trkpt lat="44.43192" lon="5.06481">
        <ele>558</ele>
        <time>2015-10-23T13:15:49Z</time>
      </trkpt>
      <trkpt lat="44.43187" lon="5.06482">
        <ele>558</ele>
        <time>2015-10-23T13:15:56Z</time>
      </trkpt>
      <trkpt lat="44.4318" lon="5.06481">
        <ele>556</ele>
        <time>2015-10-23T13:16:07Z</time>
      </trkpt>
      <trkpt lat="44.43172" lon="5.06486">
        <ele>558</ele>
        <time>2015-10-23T13:16:18Z</time>
      </trkpt>
      <trkpt lat="44.43166" lon="5.06489">
        <ele>559</ele>
        <time>2015-10-23T13:16:29Z</time>
      </trkpt>
      <trkpt lat="44.43163" lon="5.0649">
        <ele>563</ele>
        <time>2015-10-23T13:16:46Z</time>
      </trkpt>
      <trkpt lat="44.43163" lon="5.0649">
        <ele>563</ele>
        <time>2015-10-23T13:16:50Z</time>
      </trkpt>
      <trkpt lat="44.43159" lon="5.06493">
        <ele>565</ele>
        <time>2015-10-23T13:17:00Z</time>
      </trkpt>
      <trkpt lat="44.43153" lon="5.06495">
        <ele>568</ele>
        <time>2015-10-23T13:17:11Z</time>
      </trkpt>
      <trkpt lat="44.43151" lon="5.06496">
        <ele>568</ele>
        <time>2015-10-23T13:17:22Z</time>
      </trkpt>
      <trkpt lat="44.43151" lon="5.06496">
        <ele>568</ele>
        <time>2015-10-23T13:17:25Z</time>
      </trkpt>
      <trkpt lat="44.43151" lon="5.06496">
        <ele>568</ele>
        <time>2015-10-23T13:17:28Z</time>
      </trkpt>
      <trkpt lat="44.43151" lon="5.06496">
        <ele>568</ele>
        <time>2015-10-23T13:17:31Z</time>
      </trkpt>
      <trkpt lat="44.43151" lon="5.06496">
        <ele>568</ele>
        <time>2015-10-23T13:17:34Z</time>
      </trkpt>
      <trkpt lat="44.4315" lon="5.06496">
        <ele>569</ele>
        <time>2015-10-23T13:17:37Z</time>
      </trkpt>
      <trkpt lat="44.4315" lon="5.06497">
        <ele>569</ele>
        <time>2015-10-23T13:17:40Z</time>
      </trkpt>
      <trkpt lat="44.43149" lon="5.06499">
        <ele>569</ele>
        <time>2015-10-23T13:17:51Z</time>
      </trkpt>
      <trkpt lat="44.43149" lon="5.06499">
        <ele>569</ele>
        <time>2015-10-23T13:17:54Z</time>
      </trkpt>
      <trkpt lat="44.43149" lon="5.06499">
        <ele>569</ele>
        <time>2015-10-23T13:17:58Z</time>
      </trkpt>
      <trkpt lat="44.43148" lon="5.06499">
        <ele>569</ele>
        <time>2015-10-23T13:18:00Z</time>
      </trkpt>
      <trkpt lat="44.43137" lon="5.06506">
        <ele>565</ele>
        <time>2015-10-23T13:18:16Z</time>
      </trkpt>
      <trkpt lat="44.43136" lon="5.06507">
        <ele>568</ele>
        <time>2015-10-23T13:18:22Z</time>
      </trkpt>
      <trkpt lat="44.43131" lon="5.06507">
        <ele>568</ele>
        <time>2015-10-23T13:18:40Z</time>
      </trkpt>
      <trkpt lat="44.43131" lon="5.06507">
        <ele>568</ele>
        <time>2015-10-23T13:18:44Z</time>
      </trkpt>
      <trkpt lat="44.43124" lon="5.06511">
        <ele>569</ele>
        <time>2015-10-23T13:18:55Z</time>
      </trkpt>
      <trkpt lat="44.43118" lon="5.06516">
        <ele>568</ele>
        <time>2015-10-23T13:19:10Z</time>
      </trkpt>
      <trkpt lat="44.43112" lon="5.06514">
        <ele>569</ele>
        <time>2015-10-23T13:19:25Z</time>
      </trkpt>
      <trkpt lat="44.43112" lon="5.06514">
        <ele>568</ele>
        <time>2015-10-23T13:19:28Z</time>
      </trkpt>
      <trkpt lat="44.43111" lon="5.06513">
        <ele>569</ele>
        <time>2015-10-23T13:19:31Z</time>
      </trkpt>
      <trkpt lat="44.4311" lon="5.06513">
        <ele>569</ele>
        <time>2015-10-23T13:19:42Z</time>
      </trkpt>
      <trkpt lat="44.4311" lon="5.06513">
        <ele>569</ele>
        <time>2015-10-23T13:19:45Z</time>
      </trkpt>
      <trkpt lat="44.4311" lon="5.06513">
        <ele>569</ele>
        <time>2015-10-23T13:19:48Z</time>
      </trkpt>
      <trkpt lat="44.4311" lon="5.06513">
        <ele>569</ele>
        <time>2015-10-23T13:19:51Z</time>
      </trkpt>
      <trkpt lat="44.4311" lon="5.06513">
        <ele>569</ele>
        <time>2015-10-23T13:19:54Z</time>
      </trkpt>
      <trkpt lat="44.4311" lon="5.06513">
        <ele>569</ele>
        <time>2015-10-23T13:19:57Z</time>
      </trkpt>
      <trkpt lat="44.4311" lon="5.06513">
        <ele>569</ele>
        <time>2015-10-23T13:20:00Z</time>
      </trkpt>
      <trkpt lat="44.4311" lon="5.06513">
        <ele>569</ele>
        <time>2015-10-23T13:20:03Z</time>
      </trkpt>
      <trkpt lat="44.4311" lon="5.06513">
        <ele>569</ele>
        <time>2015-10-23T13:20:06Z</time>
      </trkpt>
      <trkpt lat="44.4311" lon="5.06513">
        <ele>569</ele>
        <time>2015-10-23T13:20:09Z</time>
      </trkpt>
      <trkpt lat="44.4311" lon="5.06513">
        <ele>569</ele>
        <time>2015-10-23T13:20:12Z</time>
      </trkpt>
      <trkpt lat="44.4311" lon="5.06513">
        <ele>569</ele>
        <time>2015-10-23T13:20:15Z</time>
      </trkpt>
      <trkpt lat="44.4311" lon="5.06513">
        <ele>569</ele>
        <time>2015-10-23T13:20:18Z</time>
      </trkpt>
      <trkpt lat="44.4311" lon="5.06513">
        <ele>569</ele>
        <time>2015-10-23T13:20:22Z</time>
      </trkpt>
      <trkpt lat="44.4311" lon="5.06513">
        <ele>569</ele>
        <time>2015-10-23T13:20:24Z</time>
      </trkpt>
      <trkpt lat="44.4311" lon="5.06513">
        <ele>569</ele>
        <time>2015-10-23T13:20:27Z</time>
      </trkpt>
      <trkpt lat="44.43108" lon="5.06513">
        <ele>568</ele>
        <time>2015-10-23T13:20:31Z</time>
      </trkpt>
      <trkpt lat="44.43104" lon="5.06513">
        <ele>566</ele>
        <time>2015-10-23T13:20:41Z</time>
      </trkpt>
      <trkpt lat="44.43101" lon="5.06513">
        <ele>565</ele>
        <time>2015-10-23T13:20:52Z</time>
      </trkpt>
      <trkpt lat="44.43099" lon="5.06513">
        <ele>567</ele>
        <time>2015-10-23T13:21:03Z</time>
      </trkpt>
      <trkpt lat="44.43099" lon="5.06513">
        <ele>567</ele>
        <time>2015-10-23T13:21:06Z</time>
      </trkpt>
      <trkpt lat="44.43099" lon="5.06512">
        <ele>567</ele>
        <time>2015-10-23T13:21:09Z</time>
      </trkpt>
      <trkpt lat="44.43099" lon="5.06512">
        <ele>567</ele>
        <time>2015-10-23T13:21:12Z</time>
      </trkpt>
      <trkpt lat="44.43094" lon="5.06512">
        <ele>563</ele>
        <time>2015-10-23T13:21:23Z</time>
      </trkpt>
      <trkpt lat="44.43091" lon="5.06513">
        <ele>563</ele>
        <time>2015-10-23T13:21:34Z</time>
      </trkpt>
      <trkpt lat="44.4309" lon="5.06514">
        <ele>564</ele>
        <time>2015-10-23T13:21:45Z</time>
      </trkpt>
      <trkpt lat="44.4309" lon="5.06515">
        <ele>564</ele>
        <time>2015-10-23T13:21:48Z</time>
      </trkpt>
      <trkpt lat="44.4309" lon="5.06515">
        <ele>564</ele>
        <time>2015-10-23T13:21:51Z</time>
      </trkpt>
      <trkpt lat="44.4309" lon="5.06515">
        <ele>564</ele>
        <time>2015-10-23T13:21:54Z</time>
      </trkpt>
      <trkpt lat="44.43085" lon="5.06521">
        <ele>563</ele>
        <time>2015-10-23T13:22:05Z</time>
      </trkpt>
      <trkpt lat="44.4308" lon="5.06523">
        <ele>559</ele>
        <time>2015-10-23T13:22:12Z</time>
      </trkpt>
      <trkpt lat="44.4308" lon="5.06523">
        <ele>559</ele>
        <time>2015-10-23T13:22:19Z</time>
      </trkpt>
      <trkpt lat="44.43079" lon="5.06523">
        <ele>559</ele>
        <time>2015-10-23T13:22:22Z</time>
      </trkpt>
      <trkpt lat="44.43077" lon="5.06527">
        <ele>561</ele>
        <time>2015-10-23T13:22:33Z</time>
      </trkpt>
      <trkpt lat="44.43069" lon="5.06535">
        <ele>561</ele>
        <time>2015-10-23T13:22:45Z</time>
      </trkpt>
      <trkpt lat="44.4306" lon="5.0654">
        <ele>560</ele>
        <time>2015-10-23T13:23:01Z</time>
      </trkpt>
      <trkpt lat="44.4306" lon="5.06543">
        <ele>561</ele>
        <time>2015-10-23T13:23:06Z</time>
      </trkpt>
      <trkpt lat="44.43054" lon="5.0654">
        <ele>557</ele>
        <time>2015-10-23T13:23:21Z</time>
      </trkpt>
      <trkpt lat="44.43051" lon="5.06539">
        <ele>552</ele>
        <time>2015-10-23T13:23:28Z</time>
      </trkpt>
      <trkpt lat="44.43048" lon="5.06537">
        <ele>548</ele>
        <time>2015-10-23T13:23:42Z</time>
      </trkpt>
      <trkpt lat="44.43047" lon="5.06534">
        <ele>548</ele>
        <time>2015-10-23T13:23:52Z</time>
      </trkpt>
      <trkpt lat="44.43046" lon="5.06526">
        <ele>544</ele>
        <time>2015-10-23T13:24:09Z</time>
      </trkpt>
      <trkpt lat="44.43043" lon="5.06524">
        <ele>547</ele>
        <time>2015-10-23T13:24:16Z</time>
      </trkpt>
      <trkpt lat="44.43037" lon="5.06523">
        <ele>547</ele>
        <time>2015-10-23T13:24:29Z</time>
      </trkpt>
      <trkpt lat="44.43034" lon="5.06522">
        <ele>547</ele>
        <time>2015-10-23T13:24:35Z</time>
      </trkpt>
      <trkpt lat="44.43033" lon="5.06522">
        <ele>547</ele>
        <time>2015-10-23T13:24:45Z</time>
      </trkpt>
      <trkpt lat="44.43032" lon="5.06521">
        <ele>549</ele>
        <time>2015-10-23T13:24:54Z</time>
      </trkpt>
      <trkpt lat="44.43032" lon="5.06521">
        <ele>548</ele>
        <time>2015-10-23T13:24:57Z</time>
      </trkpt>
      <trkpt lat="44.43032" lon="5.06522">
        <ele>548</ele>
        <time>2015-10-23T13:25:00Z</time>
      </trkpt>
      <trkpt lat="44.43032" lon="5.06522">
        <ele>548</ele>
        <time>2015-10-23T13:25:03Z</time>
      </trkpt>
      <trkpt lat="44.43032" lon="5.06522">
        <ele>549</ele>
        <time>2015-10-23T13:25:06Z</time>
      </trkpt>
      <trkpt lat="44.43032" lon="5.06522">
        <ele>549</ele>
        <time>2015-10-23T13:25:09Z</time>
      </trkpt>
      <trkpt lat="44.43032" lon="5.06522">
        <ele>549</ele>
        <time>2015-10-23T13:25:12Z</time>
      </trkpt>
      <trkpt lat="44.43032" lon="5.06521">
        <ele>549</ele>
        <time>2015-10-23T13:25:15Z</time>
      </trkpt>
      <trkpt lat="44.43032" lon="5.06521">
        <ele>549</ele>
        <time>2015-10-23T13:25:18Z</time>
      </trkpt>
      <trkpt lat="44.43032" lon="5.06521">
        <ele>549</ele>
        <time>2015-10-23T13:25:21Z</time>
      </trkpt>
      <trkpt lat="44.43032" lon="5.06521">
        <ele>548</ele>
        <time>2015-10-23T13:25:24Z</time>
      </trkpt>
      <trkpt lat="44.43032" lon="5.06521">
        <ele>548</ele>
        <time>2015-10-23T13:25:27Z</time>
      </trkpt>
      <trkpt lat="44.43032" lon="5.06521">
        <ele>548</ele>
        <time>2015-10-23T13:25:30Z</time>
      </trkpt>
      <trkpt lat="44.43032" lon="5.06521">
        <ele>548</ele>
        <time>2015-10-23T13:25:33Z</time>
      </trkpt>
      <trkpt lat="44.43032" lon="5.06521">
        <ele>548</ele>
        <time>2015-10-23T13:25:36Z</time>
      </trkpt>
      <trkpt lat="44.43032" lon="5.06521">
        <ele>548</ele>
        <time>2015-10-23T13:25:39Z</time>
      </trkpt>
      <trkpt lat="44.43032" lon="5.06521">
        <ele>548</ele>
        <time>2015-10-23T13:25:42Z</time>
      </trkpt>
      <trkpt lat="44.43032" lon="5.06521">
        <ele>548</ele>
        <time>2015-10-23T13:25:45Z</time>
      </trkpt>
      <trkpt lat="44.43032" lon="5.06521">
        <ele>548</ele>
        <time>2015-10-23T13:25:48Z</time>
      </trkpt>
      <trkpt lat="44.43032" lon="5.06521">
        <ele>548</ele>
        <time>2015-10-23T13:25:51Z</time>
      </trkpt>
      <trkpt lat="44.43032" lon="5.06521">
        <ele>548</ele>
        <time>2015-10-23T13:25:54Z</time>
      </trkpt>
      <trkpt lat="44.43032" lon="5.06521">
        <ele>548</ele>
        <time>2015-10-23T13:25:57Z</time>
      </trkpt>
      <trkpt lat="44.43032" lon="5.06521">
        <ele>548</ele>
        <time>2015-10-23T13:26:00Z</time>
      </trkpt>
      <trkpt lat="44.43032" lon="5.06521">
        <ele>548</ele>
        <time>2015-10-23T13:26:03Z</time>
      </trkpt>
      <trkpt lat="44.43032" lon="5.06521">
        <ele>548</ele>
        <time>2015-10-23T13:26:06Z</time>
      </trkpt>
      <trkpt lat="44.43032" lon="5.06521">
        <ele>548</ele>
        <time>2015-10-23T13:26:09Z</time>
      </trkpt>
      <trkpt lat="44.43028" lon="5.06521">
        <ele>549</ele>
        <time>2015-10-23T13:26:16Z</time>
      </trkpt>
      <trkpt lat="44.43028" lon="5.06522">
        <ele>548</ele>
        <time>2015-10-23T13:26:23Z</time>
      </trkpt>
      <trkpt lat="44.43028" lon="5.06521">
        <ele>548</ele>
        <time>2015-10-23T13:26:26Z</time>
      </trkpt>
      <trkpt lat="44.43028" lon="5.06521">
        <ele>548</ele>
        <time>2015-10-23T13:26:29Z</time>
      </trkpt>
      <trkpt lat="44.43028" lon="5.06521">
        <ele>548</ele>
        <time>2015-10-23T13:26:32Z</time>
      </trkpt>
      <trkpt lat="44.43028" lon="5.06521">
        <ele>548</ele>
        <time>2015-10-23T13:26:35Z</time>
      </trkpt>
      <trkpt lat="44.43028" lon="5.06521">
        <ele>548</ele>
        <time>2015-10-23T13:26:38Z</time>
      </trkpt>
      <trkpt lat="44.43028" lon="5.06521">
        <ele>547</ele>
        <time>2015-10-23T13:26:42Z</time>
      </trkpt>
      <trkpt lat="44.43026" lon="5.06522">
        <ele>545</ele>
        <time>2015-10-23T13:26:49Z</time>
      </trkpt>
      <trkpt lat="44.43024" lon="5.06519">
        <ele>542</ele>
        <time>2015-10-23T13:26:55Z</time>
      </trkpt>
      <trkpt lat="44.4302" lon="5.06517">
        <ele>541</ele>
        <time>2015-10-23T13:27:06Z</time>
      </trkpt>
      <trkpt lat="44.4302" lon="5.06515">
        <ele>538</ele>
        <time>2015-10-23T13:27:17Z</time>
      </trkpt>
      <trkpt lat="44.4302" lon="5.06515">
        <ele>537</ele>
        <time>2015-10-23T13:27:20Z</time>
      </trkpt>
      <trkpt lat="44.43019" lon="5.06515">
        <ele>537</ele>
        <time>2015-10-23T13:27:23Z</time>
      </trkpt>
      <trkpt lat="44.43014" lon="5.06514">
        <ele>541</ele>
        <time>2015-10-23T13:27:34Z</time>
      </trkpt>
      <trkpt lat="44.43011" lon="5.06514">
        <ele>542</ele>
        <time>2015-10-23T13:27:39Z</time>
      </trkpt>
      <trkpt lat="44.4301" lon="5.06515">
        <ele>544</ele>
        <time>2015-10-23T13:27:49Z</time>
      </trkpt>
      <trkpt lat="44.43009" lon="5.06515">
        <ele>544</ele>
        <time>2015-10-23T13:27:51Z</time>
      </trkpt>
      <trkpt lat="44.43009" lon="5.06515">
        <ele>544</ele>
        <time>2015-10-23T13:27:54Z</time>
      </trkpt>
      <trkpt lat="44.43008" lon="5.06515">
        <ele>543</ele>
        <time>2015-10-23T13:27:57Z</time>
      </trkpt>
      <trkpt lat="44.43001" lon="5.06509">
        <ele>534</ele>
        <time>2015-10-23T13:28:11Z</time>
      </trkpt>
      <trkpt lat="44.42997" lon="5.06509">
        <ele>531</ele>
        <time>2015-10-23T13:28:21Z</time>
      </trkpt>
      <trkpt lat="44.42994" lon="5.06506">
        <ele>530</ele>
        <time>2015-10-23T13:28:30Z</time>
      </trkpt>
      <trkpt lat="44.42987" lon="5.06504">
        <ele>528</ele>
        <time>2015-10-23T13:28:43Z</time>
      </trkpt>
      <trkpt lat="44.42983" lon="5.06503">
        <ele>527</ele>
        <time>2015-10-23T13:28:52Z</time>
      </trkpt>
      <trkpt lat="44.42977" lon="5.06499">
        <ele>524</ele>
        <time>2015-10-23T13:29:05Z</time>
      </trkpt>
      <trkpt lat="44.42969" lon="5.06498">
        <ele>525</ele>
        <time>2015-10-23T13:29:14Z</time>
      </trkpt>
      <trkpt lat="44.42964" lon="5.06492">
        <ele>525</ele>
        <time>2015-10-23T13:29:25Z</time>
      </trkpt>
      <trkpt lat="44.42957" lon="5.0649">
        <ele>529</ele>
        <time>2015-10-23T13:29:38Z</time>
      </trkpt>
      <trkpt lat="44.42954" lon="5.06483">
        <ele>526</ele>
        <time>2015-10-23T13:29:49Z</time>
      </trkpt>
      <trkpt lat="44.42953" lon="5.06479">
        <ele>525</ele>
        <time>2015-10-23T13:30:05Z</time>
      </trkpt>
      <trkpt lat="44.42951" lon="5.06479">
        <ele>526</ele>
        <time>2015-10-23T13:30:09Z</time>
      </trkpt>
      <trkpt lat="44.42951" lon="5.06479">
        <ele>526</ele>
        <time>2015-10-23T13:30:20Z</time>
      </trkpt>
      <trkpt lat="44.42951" lon="5.06479">
        <ele>526</ele>
        <time>2015-10-23T13:30:23Z</time>
      </trkpt>
      <trkpt lat="44.42951" lon="5.06479">
        <ele>526</ele>
        <time>2015-10-23T13:30:26Z</time>
      </trkpt>
      <trkpt lat="44.42951" lon="5.06479">
        <ele>526</ele>
        <time>2015-10-23T13:30:29Z</time>
      </trkpt>
      <trkpt lat="44.42951" lon="5.0648">
        <ele>526</ele>
        <time>2015-10-23T13:30:32Z</time>
      </trkpt>
      <trkpt lat="44.4295" lon="5.06481">
        <ele>524</ele>
        <time>2015-10-23T13:30:35Z</time>
      </trkpt>
      <trkpt lat="44.42946" lon="5.06482">
        <ele>521</ele>
        <time>2015-10-23T13:30:47Z</time>
      </trkpt>
      <trkpt lat="44.42944" lon="5.06479">
        <ele>519</ele>
        <time>2015-10-23T13:31:03Z</time>
      </trkpt>
      <trkpt lat="44.42944" lon="5.06479">
        <ele>519</ele>
        <time>2015-10-23T13:31:07Z</time>
      </trkpt>
      <trkpt lat="44.42944" lon="5.06479">
        <ele>519</ele>
        <time>2015-10-23T13:31:09Z</time>
      </trkpt>
      <trkpt lat="44.42944" lon="5.06479">
        <ele>519</ele>
        <time>2015-10-23T13:31:12Z</time>
      </trkpt>
      <trkpt lat="44.42941" lon="5.06478">
        <ele>518</ele>
        <time>2015-10-23T13:31:17Z</time>
      </trkpt>
      <trkpt lat="44.42932" lon="5.06477">
        <ele>512</ele>
        <time>2015-10-23T13:31:26Z</time>
      </trkpt>
      <trkpt lat="44.42928" lon="5.06475">
        <ele>513</ele>
        <time>2015-10-23T13:31:37Z</time>
      </trkpt>
      <trkpt lat="44.42917" lon="5.06464">
        <ele>514</ele>
        <time>2015-10-23T13:31:52Z</time>
      </trkpt>
      <trkpt lat="44.42911" lon="5.06457">
        <ele>515</ele>
        <time>2015-10-23T13:32:09Z</time>
      </trkpt>
      <trkpt lat="44.42909" lon="5.06457">
        <ele>515</ele>
        <time>2015-10-23T13:32:17Z</time>
      </trkpt>
      <trkpt lat="44.42909" lon="5.06457">
        <ele>515</ele>
        <time>2015-10-23T13:32:19Z</time>
      </trkpt>
      <trkpt lat="44.42908" lon="5.06456">
        <ele>515</ele>
        <time>2015-10-23T13:32:22Z</time>
      </trkpt>
      <trkpt lat="44.42902" lon="5.06449">
        <ele>514</ele>
        <time>2015-10-23T13:32:35Z</time>
      </trkpt>
      <trkpt lat="44.42895" lon="5.06443">
        <ele>514</ele>
        <time>2015-10-23T13:32:44Z</time>
      </trkpt>
      <trkpt lat="44.42879" lon="5.06436">
        <ele>511</ele>
        <time>2015-10-23T13:32:56Z</time>
      </trkpt>
      <trkpt lat="44.42867" lon="5.06429">
        <ele>515</ele>
        <time>2015-10-23T13:33:10Z</time>
      </trkpt>
      <trkpt lat="44.42864" lon="5.06425">
        <ele>516</ele>
        <time>2015-10-23T13:33:17Z</time>
      </trkpt>
      <trkpt lat="44.42863" lon="5.06422">
        <ele>518</ele>
        <time>2015-10-23T13:33:28Z</time>
      </trkpt>
      <trkpt lat="44.42861" lon="5.0642">
        <ele>515</ele>
        <time>2015-10-23T13:33:34Z</time>
      </trkpt>
      <trkpt lat="44.4285" lon="5.06405">
        <ele>512</ele>
        <time>2015-10-23T13:33:49Z</time>
      </trkpt>
      <trkpt lat="44.42847" lon="5.06402">
        <ele>513</ele>
        <time>2015-10-23T13:33:54Z</time>
      </trkpt>
      <trkpt lat="44.4284" lon="5.06395">
        <ele>509</ele>
        <time>2015-10-23T13:34:04Z</time>
      </trkpt>
      <trkpt lat="44.42833" lon="5.06388">
        <ele>509</ele>
        <time>2015-10-23T13:34:15Z</time>
      </trkpt>
      <trkpt lat="44.42826" lon="5.06383">
        <ele>507</ele>
        <time>2015-10-23T13:34:26Z</time>
      </trkpt>
      <trkpt lat="44.42819" lon="5.06375">
        <ele>505</ele>
        <time>2015-10-23T13:34:40Z</time>
      </trkpt>
      <trkpt lat="44.42813" lon="5.06367">
        <ele>502</ele>
        <time>2015-10-23T13:34:48Z</time>
      </trkpt>
      <trkpt lat="44.42806" lon="5.06358">
        <ele>502</ele>
        <time>2015-10-23T13:34:59Z</time>
      </trkpt>
      <trkpt lat="44.42801" lon="5.06351">
        <ele>495</ele>
        <time>2015-10-23T13:35:12Z</time>
      </trkpt>
      <trkpt lat="44.42798" lon="5.06344">
        <ele>492</ele>
        <time>2015-10-23T13:35:21Z</time>
      </trkpt>
      <trkpt lat="44.42791" lon="5.06336">
        <ele>492</ele>
        <time>2015-10-23T13:35:33Z</time>
      </trkpt>
      <trkpt lat="44.42787" lon="5.06328">
        <ele>488</ele>
        <time>2015-10-23T13:35:43Z</time>
      </trkpt>
      <trkpt lat="44.42779" lon="5.06322">
        <ele>490</ele>
        <time>2015-10-23T13:35:55Z</time>
      </trkpt>
      <trkpt lat="44.42773" lon="5.06312">
        <ele>487</ele>
        <time>2015-10-23T13:36:05Z</time>
      </trkpt>
      <trkpt lat="44.42765" lon="5.06304">
        <ele>487</ele>
        <time>2015-10-23T13:36:16Z</time>
      </trkpt>
      <trkpt lat="44.42747" lon="5.06297">
        <ele>491</ele>
        <time>2015-10-23T13:36:36Z</time>
      </trkpt>
      <trkpt lat="44.42746" lon="5.06294">
        <ele>487</ele>
        <time>2015-10-23T13:36:40Z</time>
      </trkpt>
      <trkpt lat="44.42744" lon="5.06292">
        <ele>487</ele>
        <time>2015-10-23T13:36:49Z</time>
      </trkpt>
      <trkpt lat="44.4274" lon="5.06288">
        <ele>484</ele>
        <time>2015-10-23T13:37:00Z</time>
      </trkpt>
      <trkpt lat="44.42735" lon="5.06286">
        <ele>484</ele>
        <time>2015-10-23T13:37:15Z</time>
      </trkpt>
      <trkpt lat="44.42735" lon="5.06287">
        <ele>483</ele>
        <time>2015-10-23T13:37:23Z</time>
      </trkpt>
      <trkpt lat="44.42735" lon="5.06287">
        <ele>483</ele>
        <time>2015-10-23T13:37:26Z</time>
      </trkpt>
      <trkpt lat="44.42735" lon="5.06287">
        <ele>483</ele>
        <time>2015-10-23T13:37:30Z</time>
      </trkpt>
      <trkpt lat="44.42734" lon="5.06287">
        <ele>484</ele>
        <time>2015-10-23T13:37:32Z</time>
      </trkpt>
      <trkpt lat="44.42734" lon="5.06287">
        <ele>485</ele>
        <time>2015-10-23T13:37:34Z</time>
      </trkpt>
      <trkpt lat="44.42733" lon="5.06285">
        <ele>485</ele>
        <time>2015-10-23T13:37:48Z</time>
      </trkpt>
      <trkpt lat="44.42732" lon="5.06286">
        <ele>483</ele>
        <time>2015-10-23T13:37:55Z</time>
      </trkpt>
      <trkpt lat="44.42732" lon="5.06286">
        <ele>483</ele>
        <time>2015-10-23T13:37:59Z</time>
      </trkpt>
      <trkpt lat="44.42732" lon="5.06286">
        <ele>483</ele>
        <time>2015-10-23T13:38:00Z</time>
      </trkpt>
      <trkpt lat="44.42732" lon="5.06286">
        <ele>483</ele>
        <time>2015-10-23T13:38:03Z</time>
      </trkpt>
      <trkpt lat="44.42732" lon="5.06286">
        <ele>483</ele>
        <time>2015-10-23T13:38:06Z</time>
      </trkpt>
      <trkpt lat="44.42732" lon="5.06286">
        <ele>483</ele>
        <time>2015-10-23T13:38:09Z</time>
      </trkpt>
      <trkpt lat="44.42732" lon="5.06286">
        <ele>483</ele>
        <time>2015-10-23T13:38:12Z</time>
      </trkpt>
      <trkpt lat="44.42732" lon="5.06286">
        <ele>483</ele>
        <time>2015-10-23T13:38:15Z</time>
      </trkpt>
      <trkpt lat="44.42732" lon="5.06286">
        <ele>483</ele>
        <time>2015-10-23T13:38:20Z</time>
      </trkpt>
      <trkpt lat="44.42732" lon="5.06286">
        <ele>483</ele>
        <time>2015-10-23T13:38:21Z</time>
      </trkpt>
      <trkpt lat="44.42732" lon="5.06286">
        <ele>483</ele>
        <time>2015-10-23T13:38:24Z</time>
      </trkpt>
      <trkpt lat="44.42732" lon="5.06286">
        <ele>483</ele>
        <time>2015-10-23T13:38:28Z</time>
      </trkpt>
      <trkpt lat="44.42732" lon="5.06286">
        <ele>483</ele>
        <time>2015-10-23T13:38:30Z</time>
      </trkpt>
      <trkpt lat="44.42732" lon="5.06286">
        <ele>483</ele>
        <time>2015-10-23T13:38:33Z</time>
      </trkpt>
      <trkpt lat="44.42732" lon="5.06286">
        <ele>483</ele>
        <time>2015-10-23T13:38:36Z</time>
      </trkpt>
      <trkpt lat="44.42732" lon="5.06286">
        <ele>482</ele>
        <time>2015-10-23T13:38:39Z</time>
      </trkpt>
      <trkpt lat="44.42731" lon="5.06286">
        <ele>483</ele>
        <time>2015-10-23T13:38:42Z</time>
      </trkpt>
      <trkpt lat="44.42729" lon="5.06282">
        <ele>483</ele>
        <time>2015-10-23T13:38:53Z</time>
      </trkpt>
      <trkpt lat="44.42724" lon="5.06276">
        <ele>480</ele>
        <time>2015-10-23T13:39:14Z</time>
      </trkpt>
      <trkpt lat="44.42723" lon="5.06275">
        <ele>478</ele>
        <time>2015-10-23T13:39:16Z</time>
      </trkpt>
      <trkpt lat="44.42712" lon="5.06267">
        <ele>475</ele>
        <time>2015-10-23T13:39:33Z</time>
      </trkpt>
      <trkpt lat="44.42709" lon="5.06266">
        <ele>476</ele>
        <time>2015-10-23T13:39:37Z</time>
      </trkpt>
      <trkpt lat="44.42708" lon="5.06267">
        <ele>475</ele>
        <time>2015-10-23T13:39:48Z</time>
      </trkpt>
      <trkpt lat="44.42708" lon="5.06267">
        <ele>476</ele>
        <time>2015-10-23T13:39:51Z</time>
      </trkpt>
      <trkpt lat="44.42708" lon="5.06267">
        <ele>476</ele>
        <time>2015-10-23T13:39:56Z</time>
      </trkpt>
      <trkpt lat="44.42708" lon="5.06267">
        <ele>476</ele>
        <time>2015-10-23T13:39:57Z</time>
      </trkpt>
      <trkpt lat="44.42701" lon="5.06264">
        <ele>473</ele>
        <time>2015-10-23T13:40:09Z</time>
      </trkpt>
      <trkpt lat="44.42694" lon="5.06258">
        <ele>474</ele>
        <time>2015-10-23T13:40:19Z</time>
      </trkpt>
      <trkpt lat="44.42686" lon="5.06255">
        <ele>470</ele>
        <time>2015-10-23T13:40:37Z</time>
      </trkpt>
      <trkpt lat="44.42683" lon="5.06257">
        <ele>469</ele>
        <time>2015-10-23T13:40:45Z</time>
      </trkpt>
      <trkpt lat="44.42679" lon="5.06258">
        <ele>470</ele>
        <time>2015-10-23T13:40:57Z</time>
      </trkpt>
      <trkpt lat="44.42678" lon="5.06254">
        <ele>471</ele>
        <time>2015-10-23T13:41:04Z</time>
      </trkpt>
      <trkpt lat="44.42673" lon="5.06249">
        <ele>465</ele>
        <time>2015-10-23T13:41:14Z</time>
      </trkpt>
      <trkpt lat="44.42665" lon="5.06242">
        <ele>459</ele>
        <time>2015-10-23T13:41:32Z</time>
      </trkpt>
      <trkpt lat="44.42662" lon="5.06242">
        <ele>460</ele>
        <time>2015-10-23T13:41:36Z</time>
      </trkpt>
      <trkpt lat="44.42652" lon="5.06237">
        <ele>459</ele>
        <time>2015-10-23T13:41:47Z</time>
      </trkpt>
      <trkpt lat="44.42636" lon="5.06224">
        <ele>466</ele>
        <time>2015-10-23T13:42:08Z</time>
      </trkpt>
      <trkpt lat="44.42636" lon="5.06224">
        <ele>466</ele>
        <time>2015-10-23T13:42:09Z</time>
      </trkpt>
      <trkpt lat="44.42628" lon="5.06218">
        <ele>470</ele>
        <time>2015-10-23T13:42:20Z</time>
      </trkpt>
      <trkpt lat="44.4262" lon="5.0621">
        <ele>470</ele>
        <time>2015-10-23T13:42:31Z</time>
      </trkpt>
      <trkpt lat="44.42609" lon="5.06196">
        <ele>468</ele>
        <time>2015-10-23T13:42:51Z</time>
      </trkpt>
      <trkpt lat="44.42608" lon="5.06194">
        <ele>469</ele>
        <time>2015-10-23T13:42:53Z</time>
      </trkpt>
      <trkpt lat="44.42601" lon="5.06185">
        <ele>465</ele>
        <time>2015-10-23T13:43:04Z</time>
      </trkpt>
      <trkpt lat="44.42595" lon="5.06175">
        <ele>463</ele>
        <time>2015-10-23T13:43:17Z</time>
      </trkpt>
      <trkpt lat="44.42592" lon="5.06169">
        <ele>464</ele>
        <time>2015-10-23T13:43:26Z</time>
      </trkpt>
      <trkpt lat="44.42591" lon="5.06168">
        <ele>459</ele>
        <time>2015-10-23T13:43:37Z</time>
      </trkpt>
      <trkpt lat="44.42591" lon="5.06168">
        <ele>459</ele>
        <time>2015-10-23T13:43:40Z</time>
      </trkpt>
      <trkpt lat="44.42591" lon="5.06168">
        <ele>459</ele>
        <time>2015-10-23T13:43:43Z</time>
      </trkpt>
      <trkpt lat="44.42591" lon="5.06168">
        <ele>459</ele>
        <time>2015-10-23T13:43:46Z</time>
      </trkpt>
      <trkpt lat="44.42589" lon="5.06168">
        <ele>459</ele>
        <time>2015-10-23T13:43:49Z</time>
      </trkpt>
      <trkpt lat="44.42582" lon="5.06163">
        <ele>460</ele>
        <time>2015-10-23T13:44:00Z</time>
      </trkpt>
      <trkpt lat="44.42574" lon="5.06153">
        <ele>460</ele>
        <time>2015-10-23T13:44:11Z</time>
      </trkpt>
      <trkpt lat="44.42568" lon="5.06142">
        <ele>463</ele>
        <time>2015-10-23T13:44:23Z</time>
      </trkpt>
      <trkpt lat="44.42563" lon="5.06134">
        <ele>466</ele>
        <time>2015-10-23T13:44:33Z</time>
      </trkpt>
      <trkpt lat="44.42557" lon="5.06122">
        <ele>465</ele>
        <time>2015-10-23T13:44:44Z</time>
      </trkpt>
      <trkpt lat="44.42553" lon="5.0611">
        <ele>463</ele>
        <time>2015-10-23T13:44:55Z</time>
      </trkpt>
      <trkpt lat="44.42548" lon="5.06099">
        <ele>465</ele>
        <time>2015-10-23T13:45:06Z</time>
      </trkpt>
      <trkpt lat="44.42547" lon="5.061">
        <ele>464</ele>
        <time>2015-10-23T13:45:17Z</time>
      </trkpt>
      <trkpt lat="44.42547" lon="5.061">
        <ele>464</ele>
        <time>2015-10-23T13:45:20Z</time>
      </trkpt>
      <trkpt lat="44.42547" lon="5.061">
        <ele>464</ele>
        <time>2015-10-23T13:45:23Z</time>
      </trkpt>
      <trkpt lat="44.42547" lon="5.061">
        <ele>464</ele>
        <time>2015-10-23T13:45:26Z</time>
      </trkpt>
      <trkpt lat="44.42547" lon="5.061">
        <ele>464</ele>
        <time>2015-10-23T13:45:29Z</time>
      </trkpt>
      <trkpt lat="44.42547" lon="5.061">
        <ele>464</ele>
        <time>2015-10-23T13:45:34Z</time>
      </trkpt>
      <trkpt lat="44.42546" lon="5.061">
        <ele>464</ele>
        <time>2015-10-23T13:45:35Z</time>
      </trkpt>
      <trkpt lat="44.42547" lon="5.061">
        <ele>464</ele>
        <time>2015-10-23T13:45:38Z</time>
      </trkpt>
      <trkpt lat="44.42547" lon="5.06099">
        <ele>463</ele>
        <time>2015-10-23T13:45:41Z</time>
      </trkpt>
      <trkpt lat="44.42548" lon="5.06086">
        <ele>457</ele>
        <time>2015-10-23T13:45:52Z</time>
      </trkpt>
      <trkpt lat="44.42545" lon="5.06072">
        <ele>455</ele>
        <time>2015-10-23T13:46:03Z</time>
      </trkpt>
      <trkpt lat="44.42539" lon="5.06064">
        <ele>451</ele>
        <time>2015-10-23T13:46:14Z</time>
      </trkpt>
      <trkpt lat="44.42532" lon="5.06056">
        <ele>451</ele>
        <time>2015-10-23T13:46:25Z</time>
      </trkpt>
      <trkpt lat="44.42524" lon="5.06049">
        <ele>454</ele>
        <time>2015-10-23T13:46:36Z</time>
      </trkpt>
      <trkpt lat="44.42518" lon="5.06036">
        <ele>455</ele>
        <time>2015-10-23T13:46:47Z</time>
      </trkpt>
      <trkpt lat="44.4251" lon="5.06021">
        <ele>452</ele>
        <time>2015-10-23T13:46:58Z</time>
      </trkpt>
      <trkpt lat="44.42505" lon="5.0601">
        <ele>450</ele>
        <time>2015-10-23T13:47:08Z</time>
      </trkpt>
      <trkpt lat="44.42499" lon="5.06">
        <ele>447</ele>
        <time>2015-10-23T13:47:20Z</time>
      </trkpt>
      <trkpt lat="44.42494" lon="5.05989">
        <ele>448</ele>
        <time>2015-10-23T13:47:31Z</time>
      </trkpt>
      <trkpt lat="44.42486" lon="5.05977">
        <ele>449</ele>
        <time>2015-10-23T13:47:41Z</time>
      </trkpt>
      <trkpt lat="44.42478" lon="5.05967">
        <ele>446</ele>
        <time>2015-10-23T13:47:53Z</time>
      </trkpt>
      <trkpt lat="44.42473" lon="5.05954">
        <ele>446</ele>
        <time>2015-10-23T13:48:03Z</time>
      </trkpt>
      <trkpt lat="44.42464" lon="5.05942">
        <ele>445</ele>
        <time>2015-10-23T13:48:15Z</time>
      </trkpt>
      <trkpt lat="44.42457" lon="5.05932">
        <ele>444</ele>
        <time>2015-10-23T13:48:26Z</time>
      </trkpt>
      <trkpt lat="44.42451" lon="5.0592">
        <ele>443</ele>
        <time>2015-10-23T13:48:36Z</time>
      </trkpt>
      <trkpt lat="44.42443" lon="5.0591">
        <ele>439</ele>
        <time>2015-10-23T13:48:47Z</time>
      </trkpt>
      <trkpt lat="44.42435" lon="5.05899">
        <ele>437</ele>
        <time>2015-10-23T13:48:58Z</time>
      </trkpt>
      <trkpt lat="44.4243" lon="5.05892">
        <ele>435</ele>
        <time>2015-10-23T13:49:10Z</time>
      </trkpt>
      <trkpt lat="44.42427" lon="5.05888">
        <ele>435</ele>
        <time>2015-10-23T13:49:20Z</time>
      </trkpt>
      <trkpt lat="44.42423" lon="5.05878">
        <ele>433</ele>
        <time>2015-10-23T13:49:31Z</time>
      </trkpt>
      <trkpt lat="44.42423" lon="5.05874">
        <ele>431</ele>
        <time>2015-10-23T13:49:43Z</time>
      </trkpt>
      <trkpt lat="44.42421" lon="5.05865">
        <ele>430</ele>
        <time>2015-10-23T13:49:55Z</time>
      </trkpt>
      <trkpt lat="44.42416" lon="5.05858">
        <ele>431</ele>
        <time>2015-10-23T13:50:05Z</time>
      </trkpt>
      <trkpt lat="44.42414" lon="5.05851">
        <ele>433</ele>
        <time>2015-10-23T13:50:16Z</time>
      </trkpt>
      <trkpt lat="44.42414" lon="5.0584">
        <ele>428</ele>
        <time>2015-10-23T13:50:31Z</time>
      </trkpt>
      <trkpt lat="44.42403" lon="5.05826">
        <ele>430</ele>
        <time>2015-10-23T13:50:45Z</time>
      </trkpt>
      <trkpt lat="44.424" lon="5.05823">
        <ele>428</ele>
        <time>2015-10-23T13:50:49Z</time>
      </trkpt>
      <trkpt lat="44.42388" lon="5.05816">
        <ele>424</ele>
        <time>2015-10-23T13:51:09Z</time>
      </trkpt>
      <trkpt lat="44.4239" lon="5.05816">
        <ele>423</ele>
        <time>2015-10-23T13:51:14Z</time>
      </trkpt>
      <trkpt lat="44.42389" lon="5.05815">
        <ele>419</ele>
        <time>2015-10-23T13:51:22Z</time>
      </trkpt>
      <trkpt lat="44.42382" lon="5.05808">
        <ele>418</ele>
        <time>2015-10-23T13:51:33Z</time>
      </trkpt>
      <trkpt lat="44.42374" lon="5.058">
        <ele>418</ele>
        <time>2015-10-23T13:51:44Z</time>
      </trkpt>
      <trkpt lat="44.42365" lon="5.05787">
        <ele>414</ele>
        <time>2015-10-23T13:51:57Z</time>
      </trkpt>
      <trkpt lat="44.42352" lon="5.05775">
        <ele>413</ele>
        <time>2015-10-23T13:52:13Z</time>
      </trkpt>
      <trkpt lat="44.42351" lon="5.05774">
        <ele>413</ele>
        <time>2015-10-23T13:52:17Z</time>
      </trkpt>
      <trkpt lat="44.42341" lon="5.05766">
        <ele>412</ele>
        <time>2015-10-23T13:52:28Z</time>
      </trkpt>
      <trkpt lat="44.42323" lon="5.05752">
        <ele>415</ele>
        <time>2015-10-23T13:52:48Z</time>
      </trkpt>
      <trkpt lat="44.42322" lon="5.05753">
        <ele>417</ele>
        <time>2015-10-23T13:52:50Z</time>
      </trkpt>
      <trkpt lat="44.42319" lon="5.05757">
        <ele>420</ele>
        <time>2015-10-23T13:53:02Z</time>
      </trkpt>
      <trkpt lat="44.42311" lon="5.05764">
        <ele>420</ele>
        <time>2015-10-23T13:53:13Z</time>
      </trkpt>
      <trkpt lat="44.42308" lon="5.05766">
        <ele>421</ele>
        <time>2015-10-23T13:53:22Z</time>
      </trkpt>
      <trkpt lat="44.42305" lon="5.05766">
        <ele>420</ele>
        <time>2015-10-23T13:53:34Z</time>
      </trkpt>
      <trkpt lat="44.42305" lon="5.05766">
        <ele>420</ele>
        <time>2015-10-23T13:53:45Z</time>
      </trkpt>
      <trkpt lat="44.42305" lon="5.05766">
        <ele>420</ele>
        <time>2015-10-23T13:53:47Z</time>
      </trkpt>
      <trkpt lat="44.42305" lon="5.05766">
        <ele>420</ele>
        <time>2015-10-23T13:53:51Z</time>
      </trkpt>
      <trkpt lat="44.42305" lon="5.05766">
        <ele>420</ele>
        <time>2015-10-23T13:53:54Z</time>
      </trkpt>
      <trkpt lat="44.42305" lon="5.05766">
        <ele>420</ele>
        <time>2015-10-23T13:53:56Z</time>
      </trkpt>
      <trkpt lat="44.42305" lon="5.05766">
        <ele>420</ele>
        <time>2015-10-23T13:53:59Z</time>
      </trkpt>
      <trkpt lat="44.42305" lon="5.05766">
        <ele>420</ele>
        <time>2015-10-23T13:54:02Z</time>
      </trkpt>
      <trkpt lat="44.42305" lon="5.05766">
        <ele>420</ele>
        <time>2015-10-23T13:54:07Z</time>
      </trkpt>
      <trkpt lat="44.42305" lon="5.05765">
        <ele>420</ele>
        <time>2015-10-23T13:54:08Z</time>
      </trkpt>
      <trkpt lat="44.42305" lon="5.05763">
        <ele>422</ele>
        <time>2015-10-23T13:54:20Z</time>
      </trkpt>
      <trkpt lat="44.42305" lon="5.05763">
        <ele>422</ele>
        <time>2015-10-23T13:54:23Z</time>
      </trkpt>
      <trkpt lat="44.42305" lon="5.05763">
        <ele>423</ele>
        <time>2015-10-23T13:54:26Z</time>
      </trkpt>
      <trkpt lat="44.42305" lon="5.05763">
        <ele>424</ele>
        <time>2015-10-23T13:54:28Z</time>
      </trkpt>
      <trkpt lat="44.42306" lon="5.05762">
        <ele>424</ele>
        <time>2015-10-23T13:54:31Z</time>
      </trkpt>
      <trkpt lat="44.42306" lon="5.05762">
        <ele>424</ele>
        <time>2015-10-23T13:54:34Z</time>
      </trkpt>
      <trkpt lat="44.42306" lon="5.05763">
        <ele>424</ele>
        <time>2015-10-23T13:54:41Z</time>
      </trkpt>
      <trkpt lat="44.42305" lon="5.05762">
        <ele>424</ele>
        <time>2015-10-23T13:54:44Z</time>
      </trkpt>
      <trkpt lat="44.42305" lon="5.05763">
        <ele>424</ele>
        <time>2015-10-23T13:54:47Z</time>
      </trkpt>
      <trkpt lat="44.42305" lon="5.05763">
        <ele>424</ele>
        <time>2015-10-23T13:54:50Z</time>
      </trkpt>
      <trkpt lat="44.42305" lon="5.05763">
        <ele>424</ele>
        <time>2015-10-23T13:54:52Z</time>
      </trkpt>
      <trkpt lat="44.42305" lon="5.05763">
        <ele>424</ele>
        <time>2015-10-23T13:54:56Z</time>
      </trkpt>
      <trkpt lat="44.42305" lon="5.05763">
        <ele>424</ele>
        <time>2015-10-23T13:54:59Z</time>
      </trkpt>
      <trkpt lat="44.42305" lon="5.05763">
        <ele>424</ele>
        <time>2015-10-23T13:55:02Z</time>
      </trkpt>
      <trkpt lat="44.42305" lon="5.05763">
        <ele>424</ele>
        <time>2015-10-23T13:55:04Z</time>
      </trkpt>
      <trkpt lat="44.42305" lon="5.05763">
        <ele>424</ele>
        <time>2015-10-23T13:55:07Z</time>
      </trkpt>
      <trkpt lat="44.42305" lon="5.05763">
        <ele>424</ele>
        <time>2015-10-23T13:55:10Z</time>
      </trkpt>
      <trkpt lat="44.42305" lon="5.05762">
        <ele>423</ele>
        <time>2015-10-23T13:55:13Z</time>
      </trkpt>
      <trkpt lat="44.42306" lon="5.05762">
        <ele>423</ele>
        <time>2015-10-23T13:55:17Z</time>
      </trkpt>
      <trkpt lat="44.42307" lon="5.0576">
        <ele>423</ele>
        <time>2015-10-23T13:55:28Z</time>
      </trkpt>
      <trkpt lat="44.42307" lon="5.05761">
        <ele>423</ele>
        <time>2015-10-23T13:55:31Z</time>
      </trkpt>
      <trkpt lat="44.42307" lon="5.0576">
        <ele>424</ele>
        <time>2015-10-23T13:55:34Z</time>
      </trkpt>
      <trkpt lat="44.42307" lon="5.0576">
        <ele>424</ele>
        <time>2015-10-23T13:55:38Z</time>
      </trkpt>
      <trkpt lat="44.42307" lon="5.0576">
        <ele>424</ele>
        <time>2015-10-23T13:55:40Z</time>
      </trkpt>
      <trkpt lat="44.42307" lon="5.0576">
        <ele>424</ele>
        <time>2015-10-23T13:55:42Z</time>
      </trkpt>
      <trkpt lat="44.42307" lon="5.0576">
        <ele>425</ele>
        <time>2015-10-23T13:55:45Z</time>
      </trkpt>
      <trkpt lat="44.42308" lon="5.0576">
        <ele>425</ele>
        <time>2015-10-23T13:55:48Z</time>
      </trkpt>
      <trkpt lat="44.42313" lon="5.05753">
        <ele>422</ele>
        <time>2015-10-23T13:56:07Z</time>
      </trkpt>
      <trkpt lat="44.42313" lon="5.05751">
        <ele>421</ele>
        <time>2015-10-23T13:56:14Z</time>
      </trkpt>
      <trkpt lat="44.42313" lon="5.05751">
        <ele>421</ele>
        <time>2015-10-23T13:56:17Z</time>
      </trkpt>
      <trkpt lat="44.42313" lon="5.05751">
        <ele>421</ele>
        <time>2015-10-23T13:56:19Z</time>
      </trkpt>
      <trkpt lat="44.42313" lon="5.0575">
        <ele>420</ele>
        <time>2015-10-23T13:56:23Z</time>
      </trkpt>
      <trkpt lat="44.42314" lon="5.0575">
        <ele>419</ele>
        <time>2015-10-23T13:56:25Z</time>
      </trkpt>
      <trkpt lat="44.42321" lon="5.05739">
        <ele>418</ele>
        <time>2015-10-23T13:56:37Z</time>
      </trkpt>
      <trkpt lat="44.42328" lon="5.05729">
        <ele>417</ele>
        <time>2015-10-23T13:56:49Z</time>
      </trkpt>
      <trkpt lat="44.42337" lon="5.05728">
        <ele>416</ele>
        <time>2015-10-23T13:56:58Z</time>
      </trkpt>
      <trkpt lat="44.42347" lon="5.05727">
        <ele>414</ele>
        <time>2015-10-23T13:57:09Z</time>
      </trkpt>
      <trkpt lat="44.4236" lon="5.05702">
        <ele>415</ele>
        <time>2015-10-23T13:57:29Z</time>
      </trkpt>
      <trkpt lat="44.42361" lon="5.05697">
        <ele>415</ele>
        <time>2015-10-23T13:57:32Z</time>
      </trkpt>
      <trkpt lat="44.42367" lon="5.05682">
        <ele>417</ele>
        <time>2015-10-23T13:57:42Z</time>
      </trkpt>
      <trkpt lat="44.42372" lon="5.05668">
        <ele>417</ele>
        <time>2015-10-23T13:57:53Z</time>
      </trkpt>
      <trkpt lat="44.42379" lon="5.05654">
        <ele>418</ele>
        <time>2015-10-23T13:58:07Z</time>
      </trkpt>
      <trkpt lat="44.42386" lon="5.05641">
        <ele>419</ele>
        <time>2015-10-23T13:58:17Z</time>
      </trkpt>
      <trkpt lat="44.42393" lon="5.05632">
        <ele>420</ele>
        <time>2015-10-23T13:58:27Z</time>
      </trkpt>
      <trkpt lat="44.42399" lon="5.05624">
        <ele>421</ele>
        <time>2015-10-23T13:58:38Z</time>
      </trkpt>
      <trkpt lat="44.42408" lon="5.05614">
        <ele>421</ele>
        <time>2015-10-23T13:58:49Z</time>
      </trkpt>
      <trkpt lat="44.42416" lon="5.05602">
        <ele>424</ele>
        <time>2015-10-23T13:58:59Z</time>
      </trkpt>
      <trkpt lat="44.42423" lon="5.05592">
        <ele>424</ele>
        <time>2015-10-23T13:59:11Z</time>
      </trkpt>
      <trkpt lat="44.4243" lon="5.0558">
        <ele>425</ele>
        <time>2015-10-23T13:59:22Z</time>
      </trkpt>
      <trkpt lat="44.42437" lon="5.05568">
        <ele>427</ele>
        <time>2015-10-23T13:59:32Z</time>
      </trkpt>
      <trkpt lat="44.42445" lon="5.05555">
        <ele>427</ele>
        <time>2015-10-23T13:59:45Z</time>
      </trkpt>
      <trkpt lat="44.42454" lon="5.05547">
        <ele>429</ele>
        <time>2015-10-23T13:59:54Z</time>
      </trkpt>
      <trkpt lat="44.42463" lon="5.05538">
        <ele>429</ele>
        <time>2015-10-23T14:00:05Z</time>
      </trkpt>
      <trkpt lat="44.42473" lon="5.0553">
        <ele>428</ele>
        <time>2015-10-23T14:00:17Z</time>
      </trkpt>
      <trkpt lat="44.42482" lon="5.05518">
        <ele>430</ele>
        <time>2015-10-23T14:00:28Z</time>
      </trkpt>
      <trkpt lat="44.42488" lon="5.05507">
        <ele>429</ele>
        <time>2015-10-23T14:00:38Z</time>
      </trkpt>
      <trkpt lat="44.42495" lon="5.05497">
        <ele>428</ele>
        <time>2015-10-23T14:00:49Z</time>
      </trkpt>
      <trkpt lat="44.42501" lon="5.05484">
        <ele>427</ele>
        <time>2015-10-23T14:01:00Z</time>
      </trkpt>
      <trkpt lat="44.42507" lon="5.05471">
        <ele>426</ele>
        <time>2015-10-23T14:01:12Z</time>
      </trkpt>
      <trkpt lat="44.42512" lon="5.05455">
        <ele>426</ele>
        <time>2015-10-23T14:01:22Z</time>
      </trkpt>
      <trkpt lat="44.42518" lon="5.05442">
        <ele>424</ele>
        <time>2015-10-23T14:01:33Z</time>
      </trkpt>
      <trkpt lat="44.42524" lon="5.05429">
        <ele>423</ele>
        <time>2015-10-23T14:01:45Z</time>
      </trkpt>
      <trkpt lat="44.42531" lon="5.05417">
        <ele>421</ele>
        <time>2015-10-23T14:01:55Z</time>
      </trkpt>
      <trkpt lat="44.42539" lon="5.05409">
        <ele>418</ele>
        <time>2015-10-23T14:02:06Z</time>
      </trkpt>
      <trkpt lat="44.42547" lon="5.05398">
        <ele>415</ele>
        <time>2015-10-23T14:02:18Z</time>
      </trkpt>
      <trkpt lat="44.42553" lon="5.05387">
        <ele>413</ele>
        <time>2015-10-23T14:02:28Z</time>
      </trkpt>
      <trkpt lat="44.42558" lon="5.05371">
        <ele>413</ele>
        <time>2015-10-23T14:02:40Z</time>
      </trkpt>
      <trkpt lat="44.42568" lon="5.05365">
        <ele>407</ele>
        <time>2015-10-23T14:02:59Z</time>
      </trkpt>
      <trkpt lat="44.42568" lon="5.05364">
        <ele>407</ele>
        <time>2015-10-23T14:03:01Z</time>
      </trkpt>
      <trkpt lat="44.42569" lon="5.05365">
        <ele>408</ele>
        <time>2015-10-23T14:03:04Z</time>
      </trkpt>
      <trkpt lat="44.4257" lon="5.05365">
        <ele>409</ele>
        <time>2015-10-23T14:03:16Z</time>
      </trkpt>
      <trkpt lat="44.4257" lon="5.05365">
        <ele>409</ele>
        <time>2015-10-23T14:03:19Z</time>
      </trkpt>
      <trkpt lat="44.4257" lon="5.05365">
        <ele>409</ele>
        <time>2015-10-23T14:03:22Z</time>
      </trkpt>
      <trkpt lat="44.4257" lon="5.05365">
        <ele>409</ele>
        <time>2015-10-23T14:03:24Z</time>
      </trkpt>
      <trkpt lat="44.4257" lon="5.05365">
        <ele>409</ele>
        <time>2015-10-23T14:03:27Z</time>
      </trkpt>
      <trkpt lat="44.4257" lon="5.05365">
        <ele>409</ele>
        <time>2015-10-23T14:03:31Z</time>
      </trkpt>
      <trkpt lat="44.4257" lon="5.05365">
        <ele>409</ele>
        <time>2015-10-23T14:03:33Z</time>
      </trkpt>
      <trkpt lat="44.4257" lon="5.05365">
        <ele>409</ele>
        <time>2015-10-23T14:03:37Z</time>
      </trkpt>
      <trkpt lat="44.4257" lon="5.05365">
        <ele>409</ele>
        <time>2015-10-23T14:03:40Z</time>
      </trkpt>
      <trkpt lat="44.4257" lon="5.05365">
        <ele>408</ele>
        <time>2015-10-23T14:03:44Z</time>
      </trkpt>
      <trkpt lat="44.4257" lon="5.05365">
        <ele>408</ele>
        <time>2015-10-23T14:03:45Z</time>
      </trkpt>
      <trkpt lat="44.4257" lon="5.05365">
        <ele>408</ele>
        <time>2015-10-23T14:03:48Z</time>
      </trkpt>
      <trkpt lat="44.4257" lon="5.05365">
        <ele>408</ele>
        <time>2015-10-23T14:03:51Z</time>
      </trkpt>
      <trkpt lat="44.4257" lon="5.05365">
        <ele>408</ele>
        <time>2015-10-23T14:03:54Z</time>
      </trkpt>
      <trkpt lat="44.4257" lon="5.05365">
        <ele>408</ele>
        <time>2015-10-23T14:03:57Z</time>
      </trkpt>
      <trkpt lat="44.4257" lon="5.05365">
        <ele>408</ele>
        <time>2015-10-23T14:04:00Z</time>
      </trkpt>
      <trkpt lat="44.4257" lon="5.05365">
        <ele>408</ele>
        <time>2015-10-23T14:04:03Z</time>
      </trkpt>
      <trkpt lat="44.4257" lon="5.05367">
        <ele>410</ele>
        <time>2015-10-23T14:04:12Z</time>
      </trkpt>
      <trkpt lat="44.4257" lon="5.05367">
        <ele>410</ele>
        <time>2015-10-23T14:04:12Z</time>
      </trkpt>
      <trkpt lat="44.4257" lon="5.05366">
        <ele>409</ele>
        <time>2015-10-23T14:04:16Z</time>
      </trkpt>
      <trkpt lat="44.4257" lon="5.05366">
        <ele>409</ele>
        <time>2015-10-23T14:04:19Z</time>
      </trkpt>
      <trkpt lat="44.4257" lon="5.05366">
        <ele>410</ele>
        <time>2015-10-23T14:04:21Z</time>
      </trkpt>
      <trkpt lat="44.42571" lon="5.05367">
        <ele>410</ele>
        <time>2015-10-23T14:04:25Z</time>
      </trkpt>
      <trkpt lat="44.42571" lon="5.05367">
        <ele>410</ele>
        <time>2015-10-23T14:04:28Z</time>
      </trkpt>
      <trkpt lat="44.42575" lon="5.05379">
        <ele>413</ele>
        <time>2015-10-23T14:04:38Z</time>
      </trkpt>
      <trkpt lat="44.42576" lon="5.05382">
        <ele>413</ele>
        <time>2015-10-23T14:04:41Z</time>
      </trkpt>
      <trkpt lat="44.42583" lon="5.05394">
        <ele>411</ele>
        <time>2015-10-23T14:04:55Z</time>
      </trkpt>
      <trkpt lat="44.4259" lon="5.05398">
        <ele>411</ele>
        <time>2015-10-23T14:05:04Z</time>
      </trkpt>
      <trkpt lat="44.42607" lon="5.05396">
        <ele>407</ele>
        <time>2015-10-23T14:05:21Z</time>
      </trkpt>
      <trkpt lat="44.4261" lon="5.05392">
        <ele>407</ele>
        <time>2015-10-23T14:05:25Z</time>
      </trkpt>
      <trkpt lat="44.42616" lon="5.05379">
        <ele>405</ele>
        <time>2015-10-23T14:05:37Z</time>
      </trkpt>
      <trkpt lat="44.42619" lon="5.05372">
        <ele>405</ele>
        <time>2015-10-23T14:05:48Z</time>
      </trkpt>
      <trkpt lat="44.42628" lon="5.05362">
        <ele>405</ele>
        <time>2015-10-23T14:05:59Z</time>
      </trkpt>
      <trkpt lat="44.42636" lon="5.05353">
        <ele>402</ele>
        <time>2015-10-23T14:06:09Z</time>
      </trkpt>
      <trkpt lat="44.42644" lon="5.05346">
        <ele>401</ele>
        <time>2015-10-23T14:06:20Z</time>
      </trkpt>
      <trkpt lat="44.42651" lon="5.05336">
        <ele>402</ele>
        <time>2015-10-23T14:06:31Z</time>
      </trkpt>
      <trkpt lat="44.4266" lon="5.05327">
        <ele>401</ele>
        <time>2015-10-23T14:06:42Z</time>
      </trkpt>
      <trkpt lat="44.42668" lon="5.05314">
        <ele>401</ele>
        <time>2015-10-23T14:06:53Z</time>
      </trkpt>
      <trkpt lat="44.42675" lon="5.05302">
        <ele>400</ele>
        <time>2015-10-23T14:07:05Z</time>
      </trkpt>
      <trkpt lat="44.42683" lon="5.05287">
        <ele>399</ele>
        <time>2015-10-23T14:07:17Z</time>
      </trkpt>
      <trkpt lat="44.42689" lon="5.05276">
        <ele>398</ele>
        <time>2015-10-23T14:07:26Z</time>
      </trkpt>
      <trkpt lat="44.42697" lon="5.05266">
        <ele>396</ele>
        <time>2015-10-23T14:07:38Z</time>
      </trkpt>
      <trkpt lat="44.42698" lon="5.05265">
        <ele>396</ele>
        <time>2015-10-23T14:07:48Z</time>
      </trkpt>
      <trkpt lat="44.42698" lon="5.05266">
        <ele>396</ele>
        <time>2015-10-23T14:07:51Z</time>
      </trkpt>
      <trkpt lat="44.42698" lon="5.05266">
        <ele>396</ele>
        <time>2015-10-23T14:07:54Z</time>
      </trkpt>
      <trkpt lat="44.42698" lon="5.05265">
        <ele>396</ele>
        <time>2015-10-23T14:07:58Z</time>
      </trkpt>
      <trkpt lat="44.42706" lon="5.05256">
        <ele>396</ele>
        <time>2015-10-23T14:08:08Z</time>
      </trkpt>
      <trkpt lat="44.42714" lon="5.05245">
        <ele>395</ele>
        <time>2015-10-23T14:08:19Z</time>
      </trkpt>
      <trkpt lat="44.4272" lon="5.05233">
        <ele>395</ele>
        <time>2015-10-23T14:08:30Z</time>
      </trkpt>
      <trkpt lat="44.4273" lon="5.05223">
        <ele>394</ele>
        <time>2015-10-23T14:08:42Z</time>
      </trkpt>
      <trkpt lat="44.42737" lon="5.05214">
        <ele>394</ele>
        <time>2015-10-23T14:08:52Z</time>
      </trkpt>
      <trkpt lat="44.42744" lon="5.05202">
        <ele>391</ele>
        <time>2015-10-23T14:09:04Z</time>
      </trkpt>
      <trkpt lat="44.42752" lon="5.0519">
        <ele>390</ele>
        <time>2015-10-23T14:09:14Z</time>
      </trkpt>
      <trkpt lat="44.42762" lon="5.05179">
        <ele>390</ele>
        <time>2015-10-23T14:09:26Z</time>
      </trkpt>
      <trkpt lat="44.42771" lon="5.05171">
        <ele>386</ele>
        <time>2015-10-23T14:09:36Z</time>
      </trkpt>
      <trkpt lat="44.42781" lon="5.0516">
        <ele>387</ele>
        <time>2015-10-23T14:09:48Z</time>
      </trkpt>
      <trkpt lat="44.42789" lon="5.05147">
        <ele>387</ele>
        <time>2015-10-23T14:09:58Z</time>
      </trkpt>
      <trkpt lat="44.42797" lon="5.05135">
        <ele>389</ele>
        <time>2015-10-23T14:10:09Z</time>
      </trkpt>
      <trkpt lat="44.42803" lon="5.05127">
        <ele>388</ele>
        <time>2015-10-23T14:10:20Z</time>
      </trkpt>
      <trkpt lat="44.42803" lon="5.05126">
        <ele>388</ele>
        <time>2015-10-23T14:10:31Z</time>
      </trkpt>
      <trkpt lat="44.42803" lon="5.05126">
        <ele>388</ele>
        <time>2015-10-23T14:10:34Z</time>
      </trkpt>
      <trkpt lat="44.42803" lon="5.05125">
        <ele>387</ele>
        <time>2015-10-23T14:10:37Z</time>
      </trkpt>
      <trkpt lat="44.42816" lon="5.05119">
        <ele>387</ele>
        <time>2015-10-23T14:10:53Z</time>
      </trkpt>
      <trkpt lat="44.4282" lon="5.05111">
        <ele>388</ele>
        <time>2015-10-23T14:10:59Z</time>
      </trkpt>
      <trkpt lat="44.4283" lon="5.05105">
        <ele>388</ele>
        <time>2015-10-23T14:11:13Z</time>
      </trkpt>
      <trkpt lat="44.42837" lon="5.05103">
        <ele>389</ele>
        <time>2015-10-23T14:11:22Z</time>
      </trkpt>
      <trkpt lat="44.42841" lon="5.05102">
        <ele>390</ele>
        <time>2015-10-23T14:11:34Z</time>
      </trkpt>
      <trkpt lat="44.42852" lon="5.05104">
        <ele>390</ele>
        <time>2015-10-23T14:11:44Z</time>
      </trkpt>
      <trkpt lat="44.42861" lon="5.05101">
        <ele>390</ele>
        <time>2015-10-23T14:11:54Z</time>
      </trkpt>
      <trkpt lat="44.42872" lon="5.05092">
        <ele>392</ele>
        <time>2015-10-23T14:12:06Z</time>
      </trkpt>
      <trkpt lat="44.42882" lon="5.05083">
        <ele>392</ele>
        <time>2015-10-23T14:12:18Z</time>
      </trkpt>
      <trkpt lat="44.42896" lon="5.05079">
        <ele>396</ele>
        <time>2015-10-23T14:12:31Z</time>
      </trkpt>
      <trkpt lat="44.42899" lon="5.05075">
        <ele>398</ele>
        <time>2015-10-23T14:12:39Z</time>
      </trkpt>
      <trkpt lat="44.42899" lon="5.05074">
        <ele>398</ele>
        <time>2015-10-23T14:12:50Z</time>
      </trkpt>
      <trkpt lat="44.42899" lon="5.05074">
        <ele>398</ele>
        <time>2015-10-23T14:12:53Z</time>
      </trkpt>
      <trkpt lat="44.42899" lon="5.05074">
        <ele>398</ele>
        <time>2015-10-23T14:12:55Z</time>
      </trkpt>
      <trkpt lat="44.42899" lon="5.05074">
        <ele>398</ele>
        <time>2015-10-23T14:12:58Z</time>
      </trkpt>
      <trkpt lat="44.42899" lon="5.05074">
        <ele>397</ele>
        <time>2015-10-23T14:13:01Z</time>
      </trkpt>
      <trkpt lat="44.429" lon="5.05074">
        <ele>397</ele>
        <time>2015-10-23T14:13:04Z</time>
      </trkpt>
      <trkpt lat="44.42904" lon="5.05071">
        <ele>396</ele>
        <time>2015-10-23T14:13:15Z</time>
      </trkpt>
      <trkpt lat="44.42903" lon="5.05072">
        <ele>397</ele>
        <time>2015-10-23T14:13:26Z</time>
      </trkpt>
      <trkpt lat="44.42903" lon="5.05071">
        <ele>397</ele>
        <time>2015-10-23T14:13:29Z</time>
      </trkpt>
      <trkpt lat="44.42903" lon="5.05072">
        <ele>398</ele>
        <time>2015-10-23T14:13:32Z</time>
      </trkpt>
      <trkpt lat="44.42903" lon="5.05072">
        <ele>397</ele>
        <time>2015-10-23T14:13:38Z</time>
      </trkpt>
      <trkpt lat="44.42903" lon="5.05072">
        <ele>397</ele>
        <time>2015-10-23T14:13:41Z</time>
      </trkpt>
      <trkpt lat="44.42903" lon="5.05073">
        <ele>397</ele>
        <time>2015-10-23T14:13:45Z</time>
      </trkpt>
      <trkpt lat="44.42905" lon="5.05075">
        <ele>398</ele>
        <time>2015-10-23T14:13:48Z</time>
      </trkpt>
      <trkpt lat="44.42908" lon="5.05075">
        <ele>398</ele>
        <time>2015-10-23T14:13:59Z</time>
      </trkpt>
      <trkpt lat="44.42908" lon="5.05077">
        <ele>398</ele>
        <time>2015-10-23T14:14:09Z</time>
      </trkpt>
      <trkpt lat="44.42908" lon="5.05078">
        <ele>399</ele>
        <time>2015-10-23T14:14:15Z</time>
      </trkpt>
      <trkpt lat="44.42908" lon="5.05078">
        <ele>399</ele>
        <time>2015-10-23T14:14:18Z</time>
      </trkpt>
      <trkpt lat="44.42907" lon="5.05078">
        <ele>399</ele>
        <time>2015-10-23T14:14:21Z</time>
      </trkpt>
      <trkpt lat="44.42907" lon="5.05078">
        <ele>399</ele>
        <time>2015-10-23T14:14:24Z</time>
      </trkpt>
      <trkpt lat="44.42908" lon="5.05076">
        <ele>398</ele>
        <time>2015-10-23T14:14:27Z</time>
      </trkpt>
      <trkpt lat="44.42914" lon="5.05069">
        <ele>399</ele>
        <time>2015-10-23T14:14:38Z</time>
      </trkpt>
      <trkpt lat="44.42927" lon="5.05067">
        <ele>396</ele>
        <time>2015-10-23T14:14:53Z</time>
      </trkpt>
      <trkpt lat="44.42933" lon="5.05064">
        <ele>395</ele>
        <time>2015-10-23T14:15:01Z</time>
      </trkpt>
      <trkpt lat="44.42934" lon="5.05059">
        <ele>396</ele>
        <time>2015-10-23T14:15:11Z</time>
      </trkpt>
      <trkpt lat="44.42935" lon="5.05053">
        <ele>395</ele>
        <time>2015-10-23T14:15:22Z</time>
      </trkpt>
      <trkpt lat="44.42934" lon="5.05054">
        <ele>396</ele>
        <time>2015-10-23T14:15:34Z</time>
      </trkpt>
      <trkpt lat="44.42935" lon="5.05053">
        <ele>395</ele>
        <time>2015-10-23T14:15:39Z</time>
      </trkpt>
      <trkpt lat="44.42935" lon="5.05052">
        <ele>395</ele>
        <time>2015-10-23T14:15:42Z</time>
      </trkpt>
      <trkpt lat="44.42935" lon="5.05053">
        <ele>393</ele>
        <time>2015-10-23T14:15:47Z</time>
      </trkpt>
      <trkpt lat="44.42935" lon="5.05053">
        <ele>393</ele>
        <time>2015-10-23T14:15:48Z</time>
      </trkpt>
      <trkpt lat="44.42935" lon="5.05051">
        <ele>393</ele>
        <time>2015-10-23T14:15:52Z</time>
      </trkpt>
      <trkpt lat="44.42934" lon="5.05048">
        <ele>397</ele>
        <time>2015-10-23T14:16:05Z</time>
      </trkpt>
      <trkpt lat="44.42934" lon="5.05048">
        <ele>397</ele>
        <time>2015-10-23T14:16:08Z</time>
      </trkpt>
      <trkpt lat="44.42934" lon="5.05048">
        <ele>397</ele>
        <time>2015-10-23T14:16:11Z</time>
      </trkpt>
      <trkpt lat="44.42934" lon="5.05048">
        <ele>397</ele>
        <time>2015-10-23T14:16:14Z</time>
      </trkpt>
      <trkpt lat="44.42934" lon="5.05048">
        <ele>397</ele>
        <time>2015-10-23T14:16:17Z</time>
      </trkpt>
      <trkpt lat="44.42934" lon="5.05048">
        <ele>398</ele>
        <time>2015-10-23T14:16:20Z</time>
      </trkpt>
      <trkpt lat="44.42934" lon="5.05048">
        <ele>398</ele>
        <time>2015-10-23T14:16:23Z</time>
      </trkpt>
      <trkpt lat="44.42934" lon="5.05048">
        <ele>398</ele>
        <time>2015-10-23T14:16:27Z</time>
      </trkpt>
      <trkpt lat="44.42934" lon="5.05048">
        <ele>399</ele>
        <time>2015-10-23T14:16:30Z</time>
      </trkpt>
      <trkpt lat="44.42934" lon="5.05048">
        <ele>399</ele>
        <time>2015-10-23T14:16:32Z</time>
      </trkpt>
      <trkpt lat="44.42934" lon="5.05048">
        <ele>399</ele>
        <time>2015-10-23T14:16:35Z</time>
      </trkpt>
      <trkpt lat="44.42935" lon="5.05047">
        <ele>399</ele>
        <time>2015-10-23T14:16:38Z</time>
      </trkpt>
      <trkpt lat="44.42935" lon="5.05047">
        <ele>399</ele>
        <time>2015-10-23T14:16:41Z</time>
      </trkpt>
      <trkpt lat="44.42935" lon="5.05047">
        <ele>399</ele>
        <time>2015-10-23T14:16:44Z</time>
      </trkpt>
      <trkpt lat="44.42935" lon="5.05047">
        <ele>398</ele>
        <time>2015-10-23T14:16:48Z</time>
      </trkpt>
      <trkpt lat="44.42935" lon="5.05047">
        <ele>399</ele>
        <time>2015-10-23T14:16:51Z</time>
      </trkpt>
      <trkpt lat="44.42935" lon="5.05047">
        <ele>400</ele>
        <time>2015-10-23T14:16:53Z</time>
      </trkpt>
      <trkpt lat="44.42935" lon="5.05047">
        <ele>400</ele>
        <time>2015-10-23T14:16:58Z</time>
      </trkpt>
      <trkpt lat="44.42934" lon="5.05047">
        <ele>400</ele>
        <time>2015-10-23T14:17:00Z</time>
      </trkpt>
      <trkpt lat="44.42933" lon="5.05046">
        <ele>401</ele>
        <time>2015-10-23T14:17:11Z</time>
      </trkpt>
      <trkpt lat="44.42933" lon="5.05046">
        <ele>401</ele>
        <time>2015-10-23T14:17:13Z</time>
      </trkpt>
      <trkpt lat="44.42933" lon="5.05046">
        <ele>401</ele>
        <time>2015-10-23T14:17:16Z</time>
      </trkpt>
      <trkpt lat="44.42933" lon="5.05046">
        <ele>401</ele>
        <time>2015-10-23T14:17:19Z</time>
      </trkpt>
      <trkpt lat="44.42933" lon="5.05046">
        <ele>401</ele>
        <time>2015-10-23T14:17:22Z</time>
      </trkpt>
      <trkpt lat="44.42933" lon="5.05046">
        <ele>401</ele>
        <time>2015-10-23T14:17:25Z</time>
      </trkpt>
      <trkpt lat="44.42933" lon="5.05046">
        <ele>401</ele>
        <time>2015-10-23T14:17:28Z</time>
      </trkpt>
      <trkpt lat="44.42933" lon="5.05046">
        <ele>401</ele>
        <time>2015-10-23T14:17:31Z</time>
      </trkpt>
      <trkpt lat="44.42933" lon="5.05046">
        <ele>401</ele>
        <time>2015-10-23T14:17:34Z</time>
      </trkpt>
      <trkpt lat="44.42933" lon="5.05046">
        <ele>401</ele>
        <time>2015-10-23T14:17:37Z</time>
      </trkpt>
      <trkpt lat="44.42933" lon="5.05046">
        <ele>401</ele>
        <time>2015-10-23T14:17:40Z</time>
      </trkpt>
      <trkpt lat="44.42933" lon="5.05046">
        <ele>401</ele>
        <time>2015-10-23T14:17:43Z</time>
      </trkpt>
      <trkpt lat="44.42933" lon="5.05046">
        <ele>401</ele>
        <time>2015-10-23T14:17:46Z</time>
      </trkpt>
      <trkpt lat="44.42933" lon="5.05046">
        <ele>401</ele>
        <time>2015-10-23T14:17:49Z</time>
      </trkpt>
      <trkpt lat="44.42933" lon="5.05046">
        <ele>401</ele>
        <time>2015-10-23T14:17:52Z</time>
      </trkpt>
      <trkpt lat="44.42933" lon="5.05046">
        <ele>401</ele>
        <time>2015-10-23T14:17:55Z</time>
      </trkpt>
      <trkpt lat="44.42933" lon="5.05046">
        <ele>401</ele>
        <time>2015-10-23T14:17:58Z</time>
      </trkpt>
      <trkpt lat="44.42933" lon="5.05046">
        <ele>401</ele>
        <time>2015-10-23T14:18:01Z</time>
      </trkpt>
      <trkpt lat="44.42933" lon="5.05046">
        <ele>400</ele>
        <time>2015-10-23T14:18:05Z</time>
      </trkpt>
      <trkpt lat="44.42937" lon="5.05042">
        <ele>402</ele>
        <time>2015-10-23T14:18:09Z</time>
      </trkpt>
      <trkpt lat="44.42935" lon="5.0504">
        <ele>397</ele>
        <time>2015-10-23T14:18:24Z</time>
      </trkpt>
      <trkpt lat="44.42934" lon="5.05044">
        <ele>399</ele>
        <time>2015-10-23T14:18:27Z</time>
      </trkpt>
      <trkpt lat="44.42933" lon="5.05046">
        <ele>400</ele>
        <time>2015-10-23T14:18:41Z</time>
      </trkpt>
      <trkpt lat="44.42933" lon="5.05041">
        <ele>400</ele>
        <time>2015-10-23T14:18:45Z</time>
      </trkpt>
      <trkpt lat="44.42932" lon="5.05039">
        <ele>399</ele>
        <time>2015-10-23T14:18:58Z</time>
      </trkpt>
      <trkpt lat="44.42932" lon="5.05039">
        <ele>399</ele>
        <time>2015-10-23T14:19:01Z</time>
      </trkpt>
      <trkpt lat="44.42932" lon="5.05038">
        <ele>399</ele>
        <time>2015-10-23T14:19:04Z</time>
      </trkpt>
      <trkpt lat="44.42938" lon="5.05027">
        <ele>397</ele>
        <time>2015-10-23T14:19:15Z</time>
      </trkpt>
      <trkpt lat="44.42943" lon="5.05019">
        <ele>397</ele>
        <time>2015-10-23T14:19:26Z</time>
      </trkpt>
      <trkpt lat="44.42944" lon="5.05016">
        <ele>397</ele>
        <time>2015-10-23T14:19:38Z</time>
      </trkpt>
      <trkpt lat="44.42946" lon="5.05015">
        <ele>397</ele>
        <time>2015-10-23T14:19:43Z</time>
      </trkpt>
      <trkpt lat="44.42946" lon="5.05011">
        <ele>395</ele>
        <time>2015-10-23T14:19:59Z</time>
      </trkpt>
      <trkpt lat="44.42943" lon="5.05009">
        <ele>395</ele>
        <time>2015-10-23T14:20:06Z</time>
      </trkpt>
      <trkpt lat="44.42935" lon="5.05006">
        <ele>390</ele>
        <time>2015-10-23T14:20:18Z</time>
      </trkpt>
      <trkpt lat="44.42931" lon="5.05005">
        <ele>389</ele>
        <time>2015-10-23T14:20:24Z</time>
      </trkpt>
      <trkpt lat="44.42929" lon="5.05005">
        <ele>390</ele>
        <time>2015-10-23T14:20:35Z</time>
      </trkpt>
      <trkpt lat="44.42929" lon="5.05002">
        <ele>390</ele>
        <time>2015-10-23T14:20:38Z</time>
      </trkpt>
      <trkpt lat="44.42932" lon="5.04994">
        <ele>387</ele>
        <time>2015-10-23T14:20:53Z</time>
      </trkpt>
      <trkpt lat="44.42928" lon="5.04985">
        <ele>389</ele>
        <time>2015-10-23T14:21:02Z</time>
      </trkpt>
      <trkpt lat="44.42926" lon="5.04983">
        <ele>388</ele>
        <time>2015-10-23T14:21:11Z</time>
      </trkpt>
      <trkpt lat="44.42922" lon="5.0498">
        <ele>387</ele>
        <time>2015-10-23T14:21:25Z</time>
      </trkpt>
      <trkpt lat="44.42919" lon="5.04978">
        <ele>387</ele>
        <time>2015-10-23T14:21:34Z</time>
      </trkpt>
      <trkpt lat="44.4292" lon="5.04978">
        <ele>385</ele>
        <time>2015-10-23T14:21:44Z</time>
      </trkpt>
      <trkpt lat="44.4292" lon="5.04978">
        <ele>384</ele>
        <time>2015-10-23T14:21:48Z</time>
      </trkpt>
      <trkpt lat="44.42921" lon="5.04978">
        <ele>384</ele>
        <time>2015-10-23T14:21:50Z</time>
      </trkpt>
      <trkpt lat="44.42921" lon="5.04978">
        <ele>384</ele>
        <time>2015-10-23T14:21:54Z</time>
      </trkpt>
      <trkpt lat="44.42921" lon="5.04978">
        <ele>384</ele>
        <time>2015-10-23T14:21:56Z</time>
      </trkpt>
      <trkpt lat="44.42921" lon="5.04978">
        <ele>384</ele>
        <time>2015-10-23T14:21:59Z</time>
      </trkpt>
      <trkpt lat="44.42921" lon="5.04978">
        <ele>384</ele>
        <time>2015-10-23T14:22:05Z</time>
      </trkpt>
      <trkpt lat="44.42921" lon="5.04978">
        <ele>384</ele>
        <time>2015-10-23T14:22:06Z</time>
      </trkpt>
      <trkpt lat="44.42921" lon="5.04978">
        <ele>384</ele>
        <time>2015-10-23T14:22:08Z</time>
      </trkpt>
      <trkpt lat="44.42921" lon="5.04978">
        <ele>384</ele>
        <time>2015-10-23T14:22:12Z</time>
      </trkpt>
      <trkpt lat="44.42921" lon="5.04978">
        <ele>384</ele>
        <time>2015-10-23T14:22:14Z</time>
      </trkpt>
      <trkpt lat="44.42921" lon="5.04978">
        <ele>384</ele>
        <time>2015-10-23T14:22:17Z</time>
      </trkpt>
      <trkpt lat="44.42921" lon="5.04978">
        <ele>384</ele>
        <time>2015-10-23T14:22:20Z</time>
      </trkpt>
      <trkpt lat="44.42921" lon="5.04978">
        <ele>384</ele>
        <time>2015-10-23T14:22:23Z</time>
      </trkpt>
      <trkpt lat="44.42921" lon="5.04978">
        <ele>384</ele>
        <time>2015-10-23T14:22:26Z</time>
      </trkpt>
      <trkpt lat="44.42921" lon="5.04978">
        <ele>384</ele>
        <time>2015-10-23T14:22:29Z</time>
      </trkpt>
      <trkpt lat="44.42921" lon="5.04978">
        <ele>384</ele>
        <time>2015-10-23T14:22:32Z</time>
      </trkpt>
      <trkpt lat="44.42921" lon="5.04978">
        <ele>384</ele>
        <time>2015-10-23T14:22:35Z</time>
      </trkpt>
      <trkpt lat="44.42921" lon="5.04978">
        <ele>384</ele>
        <time>2015-10-23T14:22:39Z</time>
      </trkpt>
      <trkpt lat="44.42921" lon="5.04978">
        <ele>384</ele>
        <time>2015-10-23T14:22:41Z</time>
      </trkpt>
      <trkpt lat="44.42921" lon="5.04978">
        <ele>384</ele>
        <time>2015-10-23T14:22:45Z</time>
      </trkpt>
      <trkpt lat="44.42921" lon="5.04978">
        <ele>384</ele>
        <time>2015-10-23T14:22:47Z</time>
      </trkpt>
      <trkpt lat="44.42909" lon="5.04972">
        <ele>377</ele>
        <time>2015-10-23T14:23:00Z</time>
      </trkpt>
      <trkpt lat="44.42909" lon="5.04972">
        <ele>377</ele>
        <time>2015-10-23T14:23:02Z</time>
      </trkpt>
      <trkpt lat="44.42904" lon="5.04968">
        <ele>376</ele>
        <time>2015-10-23T14:23:12Z</time>
      </trkpt>
      <trkpt lat="44.42899" lon="5.04966">
        <ele>373</ele>
        <time>2015-10-23T14:23:23Z</time>
      </trkpt>
      <trkpt lat="44.42887" lon="5.04966">
        <ele>374</ele>
        <time>2015-10-23T14:23:35Z</time>
      </trkpt>
      <trkpt lat="44.42881" lon="5.04964">
        <ele>377</ele>
        <time>2015-10-23T14:23:45Z</time>
      </trkpt>
      <trkpt lat="44.4287" lon="5.04959">
        <ele>379</ele>
        <time>2015-10-23T14:23:56Z</time>
      </trkpt>
      <trkpt lat="44.42859" lon="5.04954">
        <ele>379</ele>
        <time>2015-10-23T14:24:07Z</time>
      </trkpt>
      <trkpt lat="44.42848" lon="5.04959">
        <ele>382</ele>
        <time>2015-10-23T14:24:18Z</time>
      </trkpt>
      <trkpt lat="44.42846" lon="5.0496">
        <ele>381</ele>
        <time>2015-10-23T14:24:35Z</time>
      </trkpt>
      <trkpt lat="44.42847" lon="5.0496">
        <ele>382</ele>
        <time>2015-10-23T14:24:44Z</time>
      </trkpt>
    </trkseg>
  </trk>
</gpx>